Time,TemperatureF,DewpointF,PressureIn,WindDirection,WindDirectionDegrees,WindSpeedMPH,WindSpeedGustMPH,Humidity,HourlyPrecipIn,Conditions,Clouds,dailyrainin,SoftwareType,DateUTC
2013-01-21 00:00:00,27.9,24.8,30.07,West,267,0.0,0.0,88,0.00,,SCT,0.00,WeatherDisplay:10.37,2013-01-21 05:00:00,
2013-01-21 00:01:00,27.8,24.7,30.07,West,267,0.0,0.0,88,0.00,,SCT,0.00,WeatherDisplay:10.37,2013-01-21 05:01:00,
2013-01-21 00:03:00,27.8,24.7,30.06,West,267,0.0,0.0,88,0.00,,SCT,0.00,WeatherDisplay:10.37,2013-01-21 05:03:00,
2013-01-21 00:06:00,27.8,24.7,30.06,West,267,0.0,0.0,88,0.00,,SCT,0.00,WeatherDisplay:10.37,2013-01-21 05:06:00,
2013-01-21 00:07:00,27.8,24.7,30.06,West,267,0.0,0.0,88,0.00,,SCT,0.00,WeatherDisplay:10.37,2013-01-21 05:07:00,
2013-01-21 00:08:00,27.8,24.7,30.06,West,267,0.0,0.0,88,0.00,,SCT,0.00,WeatherDisplay:10.37,2013-01-21 05:08:00,
2013-01-21 00:13:00,27.8,24.7,30.06,West,267,0.0,0.0,88,0.00,,SCT,0.00,WeatherDisplay:10.37,2013-01-21 05:13:00,
2013-01-21 00:14:00,27.8,24.7,30.06,West,267,0.0,0.0,88,0.00,,SCT,0.00,WeatherDisplay:10.37,2013-01-21 05:14:00,
2013-01-21 00:15:00,27.6,24.5,30.06,West,267,0.0,0.0,88,0.00,,SCT,0.00,WeatherDisplay:10.37,2013-01-21 05:15:00,
2013-01-21 00:18:00,27.6,24.5,30.06,West,267,0.0,0.0,88,0.00,,SCT,0.00,WeatherDisplay:10.37,2013-01-21 05:18:00,
2013-01-21 00:20:00,27.6,24.5,30.06,West,267,0.0,0.0,88,0.00,,SCT,0.00,WeatherDisplay:10.37,2013-01-21 05:20:00,
2013-01-21 00:22:00,27.6,24.5,30.06,West,267,0.0,0.0,88,0.00,,SCT,0.00,WeatherDisplay:10.37,2013-01-21 05:22:00,
2013-01-21 00:23:00,27.6,24.5,30.06,West,267,0.0,0.0,88,0.00,,SCT,0.00,WeatherDisplay:10.37,2013-01-21 05:23:00,
2013-01-21 00:24:00,27.6,24.5,30.06,West,267,0.0,0.0,88,0.00,,SCT,0.00,WeatherDisplay:10.37,2013-01-21 05:24:00,
2013-01-21 00:28:00,27.5,24.4,30.06,West,267,0.0,0.0,88,0.00,,SCT,0.00,WeatherDisplay:10.37,2013-01-21 05:28:00,
2013-01-21 00:29:00,27.3,24.2,30.06,West,267,0.0,0.0,88,0.00,,SCT,0.00,WeatherDisplay:10.37,2013-01-21 05:29:00,
2013-01-21 00:32:00,27.3,24.2,30.06,West,267,0.0,0.0,88,0.00,,SCT,0.00,WeatherDisplay:10.37,2013-01-21 05:32:00,
2013-01-21 00:34:00,27.2,24.1,30.06,West,267,0.0,0.0,88,0.00,,SCT,0.00,WeatherDisplay:10.37,2013-01-21 05:34:00,
2013-01-21 00:37:00,27.0,23.9,30.05,West,267,0.0,0.0,88,0.00,,SCT,0.00,WeatherDisplay:10.37,2013-01-21 05:37:00,
2013-01-21 00:39:00,27.0,23.9,30.05,West,267,0.0,0.0,88,0.00,,SCT,0.00,WeatherDisplay:10.37,2013-01-21 05:39:00,
2013-01-21 00:42:00,26.9,23.8,30.05,West,267,0.0,0.0,88,0.00,,SCT,0.00,WeatherDisplay:10.37,2013-01-21 05:42:00,
2013-01-21 00:44:00,26.9,24.1,30.05,West,267,0.0,0.0,89,0.00,,SCT,0.00,WeatherDisplay:10.37,2013-01-21 05:44:00,
2013-01-21 00:49:00,26.7,23.9,30.05,West,267,0.0,0.0,89,0.00,,SCT,0.00,WeatherDisplay:10.37,2013-01-21 05:49:00,
2013-01-21 00:52:00,26.7,23.9,30.05,West,267,0.0,0.0,89,0.00,,SCT,0.00,WeatherDisplay:10.37,2013-01-21 05:52:00,
2013-01-21 00:54:00,26.6,23.8,30.05,West,267,0.0,0.0,89,0.00,,SCT,0.00,WeatherDisplay:10.37,2013-01-21 05:54:00,
2013-01-21 00:56:00,26.6,23.8,30.05,West,267,0.0,0.0,89,0.00,,SCT,0.00,WeatherDisplay:10.37,2013-01-21 05:56:00,
2013-01-21 00:57:00,26.6,23.8,30.05,West,267,0.0,0.0,89,0.00,,SCT,0.00,WeatherDisplay:10.37,2013-01-21 05:57:00,
2013-01-21 00:59:00,26.6,23.8,30.05,West,267,0.0,0.0,89,0.00,,SCT,0.00,WeatherDisplay:10.37,2013-01-21 05:59:00,
2013-01-21 01:00:00,26.6,23.8,30.05,West,267,0.0,0.0,89,0.00,,SCT,0.00,WeatherDisplay:10.37,2013-01-21 06:00:00,
2013-01-21 01:02:00,26.4,23.6,30.05,West,267,0.0,0.0,89,0.00,,SCT,0.00,WeatherDisplay:10.37,2013-01-21 06:02:00,
2013-01-21 01:04:00,26.4,23.6,30.05,West,267,0.0,0.0,89,0.00,,SCT,0.00,WeatherDisplay:10.37,2013-01-21 06:04:00,
2013-01-21 01:06:00,26.4,23.6,30.05,West,267,0.0,0.0,89,0.00,,SCT,0.00,WeatherDisplay:10.37,2013-01-21 06:06:00,
2013-01-21 01:07:00,26.6,23.8,30.05,West,267,0.0,0.0,89,0.00,,SCT,0.00,WeatherDisplay:10.37,2013-01-21 06:07:00,
2013-01-21 01:10:00,26.6,23.8,30.05,West,267,0.0,0.0,89,0.00,,SCT,0.00,WeatherDisplay:10.37,2013-01-21 06:10:00,
2013-01-21 01:15:00,26.4,23.6,30.05,West,267,0.0,0.0,89,0.00,,SCT,0.00,WeatherDisplay:10.37,2013-01-21 06:15:00,
2013-01-21 01:16:00,26.4,23.6,30.04,West,267,0.0,0.0,89,0.00,,SCT,0.00,WeatherDisplay:10.37,2013-01-21 06:16:00,
2013-01-21 01:21:00,26.4,23.6,30.04,West,267,0.0,0.0,89,0.00,,SCT,0.00,WeatherDisplay:10.37,2013-01-21 06:21:00,
2013-01-21 01:22:00,26.4,23.6,30.04,West,267,0.0,0.0,89,0.00,,SCT,0.00,WeatherDisplay:10.37,2013-01-21 06:22:00,
2013-01-21 01:26:00,26.4,23.6,30.04,West,267,0.0,0.0,89,0.00,,SCT,0.00,WeatherDisplay:10.37,2013-01-21 06:26:00,
2013-01-21 01:28:00,26.4,23.6,30.04,West,267,0.0,0.0,89,0.00,,SCT,0.00,WeatherDisplay:10.37,2013-01-21 06:28:00,
2013-01-21 01:31:00,26.4,23.6,30.04,West,267,0.0,0.0,89,0.00,,SCT,0.00,WeatherDisplay:10.37,2013-01-21 06:31:00,
2013-01-21 01:32:00,26.4,23.6,30.04,West,267,0.0,0.0,89,0.00,,SCT,0.00,WeatherDisplay:10.37,2013-01-21 06:32:00,
2013-01-21 01:33:00,26.4,23.6,30.04,West,267,0.0,0.0,89,0.00,,SCT,0.00,WeatherDisplay:10.37,2013-01-21 06:33:00,
2013-01-21 01:37:00,26.3,23.5,30.04,West,267,0.0,0.0,89,0.00,,SCT,0.00,WeatherDisplay:10.37,2013-01-21 06:37:00,
2013-01-21 01:38:00,26.3,23.5,30.04,West,267,0.0,0.0,89,0.00,,SCT,0.00,WeatherDisplay:10.37,2013-01-21 06:38:00,
2013-01-21 01:40:00,26.3,23.5,30.04,West,267,0.0,0.0,89,0.00,,SCT,0.00,WeatherDisplay:10.37,2013-01-21 06:40:00,
2013-01-21 01:43:00,26.1,23.3,30.05,West,267,0.0,0.0,89,0.00,,SCT,0.00,WeatherDisplay:10.37,2013-01-21 06:43:00,
2013-01-21 01:45:00,26.1,23.3,30.05,West,267,0.0,0.0,89,0.00,,SCT,0.00,WeatherDisplay:10.37,2013-01-21 06:45:00,
2013-01-21 01:47:00,26.1,23.3,30.05,West,267,0.0,0.0,89,0.00,,SCT,0.00,WeatherDisplay:10.37,2013-01-21 06:47:00,
2013-01-21 01:48:00,26.3,23.5,30.05,West,267,0.0,0.0,89,0.00,,SCT,0.00,WeatherDisplay:10.37,2013-01-21 06:48:00,
2013-01-21 01:53:00,26.3,23.5,30.05,West,267,0.0,0.0,89,0.00,,SCT,0.00,WeatherDisplay:10.37,2013-01-21 06:53:00,
2013-01-21 01:54:00,26.3,23.5,30.05,West,267,0.0,0.0,89,0.00,,SCT,0.00,WeatherDisplay:10.37,2013-01-21 06:54:00,
2013-01-21 01:58:00,26.4,23.6,30.05,West,267,0.0,0.0,89,0.00,,SCT,0.00,WeatherDisplay:10.37,2013-01-21 06:58:00,
2013-01-21 01:59:00,26.3,23.5,30.05,West,267,0.0,0.0,89,0.00,,SCT,0.00,WeatherDisplay:10.37,2013-01-21 06:59:00,
2013-01-21 02:00:00,26.3,23.5,30.05,West,267,0.0,0.0,89,0.00,,SCT,0.00,WeatherDisplay:10.37,2013-01-21 07:00:00,
2013-01-21 02:04:00,26.3,23.5,30.05,West,267,0.0,0.0,89,0.00,,SCT,0.00,WeatherDisplay:10.37,2013-01-21 07:04:00,
2013-01-21 02:05:00,26.3,23.5,30.05,West,267,0.0,0.0,89,0.00,,SCT,0.00,WeatherDisplay:10.37,2013-01-21 07:05:00,
2013-01-21 02:06:00,26.3,23.5,30.05,West,267,0.0,0.0,89,0.00,,SCT,0.00,WeatherDisplay:10.37,2013-01-21 07:06:00,
2013-01-21 02:10:00,26.1,23.3,30.05,West,267,0.0,0.0,89,0.00,,SCT,0.00,WeatherDisplay:10.37,2013-01-21 07:10:00,
2013-01-21 02:12:00,26.0,23.2,30.05,West,267,0.0,0.0,89,0.00,,SCT,0.00,WeatherDisplay:10.37,2013-01-21 07:12:00,
2013-01-21 02:13:00,26.0,23.2,30.05,West,267,0.0,0.0,89,0.00,,SCT,0.00,WeatherDisplay:10.37,2013-01-21 07:13:00,
2013-01-21 02:14:00,26.0,23.2,30.05,West,267,0.0,0.0,89,0.00,,SCT,0.00,WeatherDisplay:10.37,2013-01-21 07:14:00,
2013-01-21 02:15:00,25.8,23.0,30.05,West,267,0.0,0.0,89,0.00,,SCT,0.00,WeatherDisplay:10.37,2013-01-21 07:15:00,
2013-01-21 02:20:00,25.7,22.9,30.05,West,267,0.0,0.0,89,0.00,,SCT,0.00,WeatherDisplay:10.37,2013-01-21 07:20:00,
2013-01-21 02:21:00,25.7,22.9,30.05,West,267,0.0,0.0,89,0.00,,SCT,0.00,WeatherDisplay:10.37,2013-01-21 07:21:00,
2013-01-21 02:23:00,25.7,22.9,30.05,West,267,0.0,0.0,89,0.00,,SCT,0.00,WeatherDisplay:10.37,2013-01-21 07:23:00,
2013-01-21 02:25:00,25.6,22.8,30.05,West,267,0.0,0.0,89,0.00,,SCT,0.00,WeatherDisplay:10.37,2013-01-21 07:25:00,
2013-01-21 02:27:00,25.6,22.8,30.05,West,267,0.0,0.0,89,0.00,,SCT,0.00,WeatherDisplay:10.37,2013-01-21 07:27:00,
2013-01-21 02:28:00,25.6,22.8,30.05,West,267,0.0,0.0,89,0.00,,SCT,0.00,WeatherDisplay:10.37,2013-01-21 07:28:00,
2013-01-21 02:29:00,25.6,22.8,30.05,West,267,0.0,0.0,89,0.00,,SCT,0.00,WeatherDisplay:10.37,2013-01-21 07:29:00,
2013-01-21 02:30:00,25.6,22.8,30.05,West,267,0.0,0.0,89,0.00,,SCT,0.00,WeatherDisplay:10.37,2013-01-21 07:30:00,
2013-01-21 02:35:00,25.6,22.8,30.05,West,267,0.0,0.0,89,0.00,,SCT,0.00,WeatherDisplay:10.37,2013-01-21 07:35:00,
2013-01-21 02:36:00,25.6,22.8,30.05,West,267,0.0,0.0,89,0.00,,SCT,0.00,WeatherDisplay:10.37,2013-01-21 07:36:00,
2013-01-21 02:37:00,25.6,22.8,30.05,West,267,0.0,0.0,89,0.00,,SCT,0.00,WeatherDisplay:10.37,2013-01-21 07:37:00,
2013-01-21 02:38:00,25.6,22.8,30.05,West,267,0.0,0.0,89,0.00,,SCT,0.00,WeatherDisplay:10.37,2013-01-21 07:38:00,
2013-01-21 02:40:00,25.6,22.8,30.05,West,267,0.0,0.0,89,0.00,,SCT,0.00,WeatherDisplay:10.37,2013-01-21 07:40:00,
2013-01-21 02:44:00,25.6,22.8,30.05,West,267,0.0,0.0,89,0.00,,SCT,0.00,WeatherDisplay:10.37,2013-01-21 07:44:00,
2013-01-21 02:45:00,25.4,22.6,30.05,West,267,0.0,0.0,89,0.00,,SCT,0.00,WeatherDisplay:10.37,2013-01-21 07:45:00,
2013-01-21 02:46:00,25.4,22.6,30.05,West,267,0.0,0.0,89,0.00,,SCT,0.00,WeatherDisplay:10.37,2013-01-21 07:46:00,
2013-01-21 02:49:00,25.4,22.6,30.05,West,267,0.0,0.0,89,0.00,,SCT,0.00,WeatherDisplay:10.37,2013-01-21 07:49:00,
2013-01-21 02:50:00,25.4,22.6,30.05,West,267,0.0,0.0,89,0.00,,SCT,0.00,WeatherDisplay:10.37,2013-01-21 07:50:00,
2013-01-21 02:54:00,25.3,22.5,30.05,West,267,0.0,0.0,89,0.00,,SCT,0.00,WeatherDisplay:10.37,2013-01-21 07:54:00,
2013-01-21 02:55:00,25.3,22.5,30.05,West,267,0.0,0.0,89,0.00,,SCT,0.00,WeatherDisplay:10.37,2013-01-21 07:55:00,
2013-01-21 02:56:00,25.3,22.5,30.05,West,267,0.0,0.0,89,0.00,,SCT,0.00,WeatherDisplay:10.37,2013-01-21 07:56:00,
2013-01-21 02:59:00,25.1,22.3,30.05,West,267,0.0,0.0,89,0.00,,SCT,0.00,WeatherDisplay:10.37,2013-01-21 07:59:00,
2013-01-21 03:01:00,25.1,22.3,30.05,West,267,0.0,0.0,89,0.00,,SCT,0.00,WeatherDisplay:10.37,2013-01-21 08:01:00,
2013-01-21 03:02:00,25.0,22.2,30.05,West,267,0.0,0.0,89,0.00,,SCT,0.00,WeatherDisplay:10.37,2013-01-21 08:02:00,
2013-01-21 03:03:00,25.0,22.2,30.05,West,267,0.0,0.0,89,0.00,,SCT,0.00,WeatherDisplay:10.37,2013-01-21 08:03:00,
2013-01-21 03:04:00,25.0,22.2,30.05,West,267,0.0,0.0,89,0.00,,SCT,0.00,WeatherDisplay:10.37,2013-01-21 08:04:00,
2013-01-21 03:08:00,24.8,22.0,30.05,West,267,0.0,0.0,89,0.00,,SCT,0.00,WeatherDisplay:10.37,2013-01-21 08:08:00,
2013-01-21 03:10:00,24.8,22.0,30.05,West,267,0.0,0.0,89,0.00,,SCT,0.00,WeatherDisplay:10.37,2013-01-21 08:10:00,
2013-01-21 03:12:00,24.8,22.0,30.05,West,267,0.0,0.0,89,0.00,,SCT,0.00,WeatherDisplay:10.37,2013-01-21 08:12:00,
2013-01-21 03:14:00,24.7,21.9,30.05,West,267,0.0,0.0,89,0.00,,SCT,0.00,WeatherDisplay:10.37,2013-01-21 08:14:00,
2013-01-21 03:15:00,24.7,21.9,30.05,West,267,0.0,0.0,89,0.00,,SCT,0.00,WeatherDisplay:10.37,2013-01-21 08:15:00,
2013-01-21 03:18:00,24.7,21.9,30.05,West,267,0.0,0.0,89,0.00,,SCT,0.00,WeatherDisplay:10.37,2013-01-21 08:18:00,
2013-01-21 03:21:00,24.7,21.9,30.05,West,267,0.0,0.0,89,0.00,,SCT,0.00,WeatherDisplay:10.37,2013-01-21 08:21:00,
2013-01-21 03:24:00,24.7,21.9,30.05,West,267,0.0,0.0,89,0.00,,SCT,0.00,WeatherDisplay:10.37,2013-01-21 08:24:00,
2013-01-21 03:25:00,24.7,21.9,30.05,West,267,0.0,0.0,89,0.00,,SCT,0.00,WeatherDisplay:10.37,2013-01-21 08:25:00,
2013-01-21 03:27:00,24.7,21.9,30.05,West,267,0.0,0.0,89,0.00,,SCT,0.00,WeatherDisplay:10.37,2013-01-21 08:27:00,
2013-01-21 03:28:00,24.7,21.9,30.05,West,267,0.0,0.0,89,0.00,,SCT,0.00,WeatherDisplay:10.37,2013-01-21 08:28:00,
2013-01-21 03:31:00,24.7,21.9,30.05,West,267,0.0,0.0,89,0.00,,SCT,0.00,WeatherDisplay:10.37,2013-01-21 08:31:00,
2013-01-21 03:33:00,24.7,21.9,30.05,West,267,0.0,0.0,89,0.00,,SCT,0.00,WeatherDisplay:10.37,2013-01-21 08:33:00,
2013-01-21 03:35:00,24.7,21.9,30.05,West,267,0.0,0.0,89,0.00,,SCT,0.00,WeatherDisplay:10.37,2013-01-21 08:35:00,
2013-01-21 03:36:00,24.7,21.9,30.05,West,267,0.0,0.0,89,0.00,,SCT,0.00,WeatherDisplay:10.37,2013-01-21 08:36:00,
2013-01-21 03:37:00,24.7,21.9,30.05,West,267,0.0,0.0,89,0.00,,SCT,0.00,WeatherDisplay:10.37,2013-01-21 08:37:00,
2013-01-21 03:39:00,24.7,21.9,30.05,West,267,0.0,0.0,89,0.00,,SCT,0.00,WeatherDisplay:10.37,2013-01-21 08:39:00,
2013-01-21 03:42:00,24.8,22.0,30.05,West,267,0.0,0.0,89,0.00,,SCT,0.00,WeatherDisplay:10.37,2013-01-21 08:42:00,
2013-01-21 03:43:00,24.8,22.0,30.05,West,267,0.0,0.0,89,0.00,,SCT,0.00,WeatherDisplay:10.37,2013-01-21 08:43:00,
2013-01-21 03:44:00,24.8,22.0,30.04,West,267,0.0,0.0,89,0.00,,SCT,0.00,WeatherDisplay:10.37,2013-01-21 08:44:00,
2013-01-21 03:47:00,24.8,22.0,30.04,West,267,0.0,0.0,89,0.00,,SCT,0.00,WeatherDisplay:10.37,2013-01-21 08:47:00,
2013-01-21 03:49:00,24.8,22.0,30.04,West,267,0.0,0.0,89,0.00,,SCT,0.00,WeatherDisplay:10.37,2013-01-21 08:49:00,
2013-01-21 03:51:00,24.8,22.0,30.04,West,267,0.0,0.0,89,0.00,,SCT,0.00,WeatherDisplay:10.37,2013-01-21 08:51:00,
2013-01-21 03:54:00,24.7,21.9,30.04,West,267,0.0,0.0,89,0.00,,SCT,0.00,WeatherDisplay:10.37,2013-01-21 08:54:00,
2013-01-21 03:55:00,24.5,21.7,30.04,West,267,0.0,0.0,89,0.00,,SCT,0.00,WeatherDisplay:10.37,2013-01-21 08:55:00,
2013-01-21 03:58:00,24.5,21.7,30.04,West,267,0.0,0.0,89,0.00,,SCT,0.00,WeatherDisplay:10.37,2013-01-21 08:58:00,
2013-01-21 03:59:00,24.5,21.7,30.04,West,267,0.0,0.0,89,0.00,,SCT,0.00,WeatherDisplay:10.37,2013-01-21 08:59:00,
2013-01-21 04:01:00,24.4,21.6,30.04,West,267,0.0,0.0,89,0.00,,SCT,0.00,WeatherDisplay:10.37,2013-01-21 09:01:00,
2013-01-21 04:03:00,24.4,21.6,30.04,West,267,0.0,0.0,89,0.00,,SCT,0.00,WeatherDisplay:10.37,2013-01-21 09:03:00,
2013-01-21 04:08:00,24.2,21.4,30.04,West,267,0.0,0.0,89,0.00,,SCT,0.00,WeatherDisplay:10.37,2013-01-21 09:08:00,
2013-01-21 04:10:00,24.2,21.4,30.04,West,267,0.0,0.0,89,0.00,,SCT,0.00,WeatherDisplay:10.37,2013-01-21 09:10:00,
2013-01-21 04:13:00,24.1,21.3,30.03,West,267,0.0,0.0,89,0.00,,SCT,0.00,WeatherDisplay:10.37,2013-01-21 09:13:00,
2013-01-21 04:18:00,24.1,21.3,30.03,West,267,0.0,0.0,89,0.00,,SCT,0.00,WeatherDisplay:10.37,2013-01-21 09:18:00,
2013-01-21 04:19:00,24.1,21.3,30.03,West,267,0.0,0.0,89,0.00,,SCT,0.00,WeatherDisplay:10.37,2013-01-21 09:19:00,
2013-01-21 04:23:00,24.1,21.3,30.03,West,267,0.0,0.0,89,0.00,,SCT,0.00,WeatherDisplay:10.37,2013-01-21 09:23:00,
2013-01-21 04:25:00,24.1,21.3,30.03,West,267,0.0,0.0,89,0.00,,SCT,0.00,WeatherDisplay:10.37,2013-01-21 09:25:00,
2013-01-21 04:30:00,24.1,21.3,30.03,West,267,0.0,0.0,89,0.00,,SCT,0.00,WeatherDisplay:10.37,2013-01-21 09:30:00,
2013-01-21 04:31:00,24.1,21.3,30.03,West,267,0.0,0.0,89,0.00,,SCT,0.00,WeatherDisplay:10.37,2013-01-21 09:31:00,
2013-01-21 04:32:00,24.1,21.3,30.03,West,267,0.0,0.0,89,0.00,,SCT,0.00,WeatherDisplay:10.37,2013-01-21 09:32:00,
2013-01-21 04:34:00,24.1,21.3,30.03,West,267,0.0,0.0,89,0.00,,SCT,0.00,WeatherDisplay:10.37,2013-01-21 09:34:00,
2013-01-21 04:39:00,23.9,21.1,30.03,West,267,0.0,0.0,89,0.00,,SCT,0.00,WeatherDisplay:10.37,2013-01-21 09:39:00,
2013-01-21 04:40:00,23.9,21.1,30.03,West,267,0.0,0.0,89,0.00,,SCT,0.00,WeatherDisplay:10.37,2013-01-21 09:40:00,
2013-01-21 04:42:00,23.9,21.1,30.03,West,267,0.0,0.0,89,0.00,,SCT,0.00,WeatherDisplay:10.37,2013-01-21 09:42:00,
2013-01-21 04:45:00,23.9,21.1,30.03,West,267,0.0,0.0,89,0.00,,SCT,0.00,WeatherDisplay:10.37,2013-01-21 09:45:00,
2013-01-21 04:46:00,23.9,21.1,30.03,West,267,0.0,0.0,89,0.00,,SCT,0.00,WeatherDisplay:10.37,2013-01-21 09:46:00,
2013-01-21 04:48:00,23.8,21.0,30.03,West,267,0.0,0.0,89,0.00,,SCT,0.00,WeatherDisplay:10.37,2013-01-21 09:48:00,
2013-01-21 04:49:00,23.8,21.0,30.03,West,267,0.0,0.0,89,0.00,,SCT,0.00,WeatherDisplay:10.37,2013-01-21 09:49:00,
2013-01-21 04:52:00,23.8,21.0,30.03,West,267,0.0,0.0,89,0.00,,SCT,0.00,WeatherDisplay:10.37,2013-01-21 09:52:00,
2013-01-21 04:54:00,23.8,21.0,30.03,West,267,0.0,0.0,89,0.00,,SCT,0.00,WeatherDisplay:10.37,2013-01-21 09:54:00,
2013-01-21 04:55:00,23.8,21.0,30.03,West,267,0.0,0.0,89,0.00,,SCT,0.00,WeatherDisplay:10.37,2013-01-21 09:55:00,
2013-01-21 04:58:00,23.8,21.0,30.03,West,267,0.0,0.0,89,0.00,,SCT,0.00,WeatherDisplay:10.37,2013-01-21 09:58:00,
2013-01-21 04:59:00,23.8,21.0,30.03,West,267,0.0,0.0,89,0.00,,SCT,0.00,WeatherDisplay:10.37,2013-01-21 09:59:00,
2013-01-21 05:01:00,23.8,21.0,30.03,West,267,0.0,0.0,89,0.00,,SCT,0.00,WeatherDisplay:10.37,2013-01-21 10:01:00,
2013-01-21 05:05:00,23.8,21.0,30.04,West,267,0.0,0.0,89,0.00,,SCT,0.00,WeatherDisplay:10.37,2013-01-21 10:05:00,
2013-01-21 05:07:00,23.8,21.0,30.04,West,267,0.0,0.0,89,0.00,,SCT,0.00,WeatherDisplay:10.37,2013-01-21 10:07:00,
2013-01-21 05:09:00,23.8,21.0,30.04,West,267,0.0,0.0,89,0.00,,SCT,0.00,WeatherDisplay:10.37,2013-01-21 10:09:00,
2013-01-21 05:13:00,23.6,20.8,30.03,West,267,0.0,0.0,89,0.00,,SCT,0.00,WeatherDisplay:10.37,2013-01-21 10:13:00,
2013-01-21 05:14:00,23.6,20.8,30.04,West,267,0.0,0.0,89,0.00,,SCT,0.00,WeatherDisplay:10.37,2013-01-21 10:14:00,
2013-01-21 05:15:00,23.6,20.8,30.03,West,267,0.0,0.0,89,0.00,,SCT,0.00,WeatherDisplay:10.37,2013-01-21 10:15:00,
2013-01-21 05:16:00,23.6,20.8,30.03,West,267,0.0,0.0,89,0.00,,SCT,0.00,WeatherDisplay:10.37,2013-01-21 10:16:00,
2013-01-21 05:20:00,23.6,20.8,30.03,West,267,0.0,0.0,89,0.00,,SCT,0.00,WeatherDisplay:10.37,2013-01-21 10:20:00,
2013-01-21 05:21:00,23.6,20.8,30.03,West,267,0.0,0.0,89,0.00,,SCT,0.00,WeatherDisplay:10.37,2013-01-21 10:21:00,
2013-01-21 05:26:00,23.6,20.8,30.03,West,267,0.0,0.0,89,0.00,,SCT,0.00,WeatherDisplay:10.37,2013-01-21 10:26:00,
2013-01-21 05:27:00,23.6,20.8,30.03,West,267,0.0,0.0,89,0.00,,SCT,0.00,WeatherDisplay:10.37,2013-01-21 10:27:00,
2013-01-21 05:28:00,23.5,20.7,30.03,West,267,0.0,0.0,89,0.00,,SCT,0.00,WeatherDisplay:10.37,2013-01-21 10:28:00,
2013-01-21 05:32:00,23.5,20.7,30.03,West,267,0.0,0.0,89,0.00,,SCT,0.00,WeatherDisplay:10.37,2013-01-21 10:32:00,
2013-01-21 05:35:00,23.5,20.7,30.03,West,267,0.0,0.0,89,0.00,,SCT,0.00,WeatherDisplay:10.37,2013-01-21 10:35:00,
2013-01-21 05:37:00,23.5,20.7,30.03,West,267,0.0,0.0,89,0.00,,SCT,0.00,WeatherDisplay:10.37,2013-01-21 10:37:00,
2013-01-21 05:40:00,23.5,20.7,30.03,West,267,0.0,0.0,89,0.00,,SCT,0.00,WeatherDisplay:10.37,2013-01-21 10:40:00,
2013-01-21 05:41:00,23.5,20.7,30.03,West,267,0.0,0.0,89,0.00,,SCT,0.00,WeatherDisplay:10.37,2013-01-21 10:41:00,
2013-01-21 05:43:00,23.3,20.5,30.03,West,267,0.0,0.0,89,0.00,,SCT,0.00,WeatherDisplay:10.37,2013-01-21 10:43:00,
2013-01-21 05:45:00,23.3,20.5,30.03,West,267,0.0,0.0,89,0.00,,SCT,0.00,WeatherDisplay:10.37,2013-01-21 10:45:00,
2013-01-21 05:46:00,23.3,20.5,30.03,West,267,0.0,0.0,89,0.00,,SCT,0.00,WeatherDisplay:10.37,2013-01-21 10:46:00,
2013-01-21 05:49:00,23.3,20.5,30.03,West,267,0.0,0.0,89,0.00,,SCT,0.00,WeatherDisplay:10.37,2013-01-21 10:49:00,
2013-01-21 05:51:00,23.2,20.4,30.03,West,267,0.0,0.0,89,0.00,,SCT,0.00,WeatherDisplay:10.37,2013-01-21 10:51:00,
2013-01-21 05:55:00,23.2,20.4,30.03,West,267,0.0,0.0,89,0.00,,SCT,0.00,WeatherDisplay:10.37,2013-01-21 10:55:00,
2013-01-21 05:56:00,23.2,20.4,30.03,West,267,0.0,0.0,89,0.00,,SCT,0.00,WeatherDisplay:10.37,2013-01-21 10:56:00,
2013-01-21 05:58:00,23.2,20.4,30.03,West,267,0.0,0.0,89,0.00,,SCT,0.00,WeatherDisplay:10.37,2013-01-21 10:58:00,
2013-01-21 06:00:00,23.2,20.4,30.03,West,267,0.0,0.0,89,0.00,,SCT,0.00,WeatherDisplay:10.37,2013-01-21 11:00:00,
2013-01-21 06:03:00,23.2,20.4,30.03,West,267,0.0,0.0,89,0.00,,SCT,0.00,WeatherDisplay:10.37,2013-01-21 11:03:00,
2013-01-21 06:06:00,23.2,20.4,30.04,West,267,0.0,0.0,89,0.00,,SCT,0.00,WeatherDisplay:10.37,2013-01-21 11:06:00,
2013-01-21 06:07:00,23.2,20.4,30.04,West,267,0.0,0.0,89,0.00,,SCT,0.00,WeatherDisplay:10.37,2013-01-21 11:07:00,
2013-01-21 06:11:00,23.2,20.4,30.04,West,267,0.0,0.0,89,0.00,,SCT,0.00,WeatherDisplay:10.37,2013-01-21 11:11:00,
2013-01-21 06:12:00,23.2,20.4,30.04,West,267,0.0,0.0,89,0.00,,SCT,0.00,WeatherDisplay:10.37,2013-01-21 11:12:00,
2013-01-21 06:16:00,23.2,20.4,30.04,West,267,0.0,0.0,89,0.00,,SCT,0.00,WeatherDisplay:10.37,2013-01-21 11:16:00,
2013-01-21 06:17:00,23.2,20.4,30.04,West,267,0.0,0.0,89,0.00,,SCT,0.00,WeatherDisplay:10.37,2013-01-21 11:17:00,
2013-01-21 06:21:00,23.2,20.4,30.04,West,267,0.0,0.0,89,0.00,,SCT,0.00,WeatherDisplay:10.37,2013-01-21 11:21:00,
2013-01-21 06:24:00,23.2,20.4,30.04,West,267,0.0,0.0,89,0.00,,SCT,0.00,WeatherDisplay:10.37,2013-01-21 11:24:00,
2013-01-21 06:26:00,23.2,20.4,30.04,West,267,0.0,0.0,89,0.00,,SCT,0.00,WeatherDisplay:10.37,2013-01-21 11:26:00,
2013-01-21 06:27:00,23.2,20.4,30.04,West,267,0.0,0.0,89,0.00,,SCT,0.00,WeatherDisplay:10.37,2013-01-21 11:27:00,
2013-01-21 06:29:00,23.2,20.4,30.04,West,267,0.0,0.0,89,0.00,,SCT,0.00,WeatherDisplay:10.37,2013-01-21 11:29:00,
2013-01-21 06:30:00,23.2,20.4,30.04,West,267,0.0,0.0,89,0.00,,SCT,0.00,WeatherDisplay:10.37,2013-01-21 11:30:00,
2013-01-21 06:34:00,23.3,20.5,30.04,West,267,0.0,0.0,89,0.00,,SCT,0.00,WeatherDisplay:10.37,2013-01-21 11:34:00,
2013-01-21 06:35:00,23.3,20.5,30.04,West,267,0.0,0.0,89,0.00,,SCT,0.00,WeatherDisplay:10.37,2013-01-21 11:35:00,
2013-01-21 06:36:00,23.3,20.5,30.04,West,267,0.0,0.0,89,0.00,,SCT,0.00,WeatherDisplay:10.37,2013-01-21 11:36:00,
2013-01-21 06:41:00,23.3,20.5,30.04,West,267,0.0,0.0,89,0.00,,SCT,0.00,WeatherDisplay:10.37,2013-01-21 11:41:00,
2013-01-21 06:42:00,23.3,20.5,30.04,West,267,0.0,0.0,89,0.00,,SCT,0.00,WeatherDisplay:10.37,2013-01-21 11:42:00,
2013-01-21 06:43:00,23.3,20.5,30.04,West,267,0.0,0.0,89,0.00,,SCT,0.00,WeatherDisplay:10.37,2013-01-21 11:43:00,
2013-01-21 06:47:00,23.2,20.4,30.04,West,267,0.0,0.0,89,0.00,,SCT,0.00,WeatherDisplay:10.37,2013-01-21 11:47:00,
2013-01-21 06:48:00,23.2,20.4,30.04,West,267,0.0,0.0,89,0.00,,SCT,0.00,WeatherDisplay:10.37,2013-01-21 11:48:00,
2013-01-21 06:50:00,23.2,20.4,30.04,West,267,0.0,0.0,89,0.00,,SCT,0.00,WeatherDisplay:10.37,2013-01-21 11:50:00,
2013-01-21 06:54:00,23.2,20.4,30.04,West,267,0.0,0.0,89,0.00,,SCT,0.00,WeatherDisplay:10.37,2013-01-21 11:54:00,
2013-01-21 06:56:00,23.2,20.4,30.05,West,267,0.0,0.0,89,0.00,,SCT,0.00,WeatherDisplay:10.37,2013-01-21 11:56:00,
2013-01-21 07:01:00,23.0,20.2,30.04,West,267,0.0,0.0,89,0.00,,SCT,0.00,WeatherDisplay:10.37,2013-01-21 12:01:00,
2013-01-21 07:02:00,23.0,20.2,30.04,West,267,0.0,0.0,89,0.00,,SCT,0.00,WeatherDisplay:10.37,2013-01-21 12:02:00,
2013-01-21 07:04:00,23.0,20.2,30.05,West,267,0.0,0.0,89,0.00,,SCT,0.00,WeatherDisplay:10.37,2013-01-21 12:04:00,
2013-01-21 07:07:00,23.0,20.2,30.06,West,267,0.0,0.0,89,0.00,,SCT,0.00,WeatherDisplay:10.37,2013-01-21 12:07:00,
2013-01-21 07:09:00,23.0,20.2,30.06,West,267,0.0,0.0,89,0.00,CLR,SCT,0.00,WeatherDisplay:10.37,2013-01-21 12:09:00,
2013-01-21 07:10:00,23.0,20.2,30.06,West,267,0.0,0.0,89,0.00,CLR,SCT,0.00,WeatherDisplay:10.37,2013-01-21 12:10:00,
2013-01-21 07:11:00,23.0,20.2,30.06,West,267,0.0,0.0,89,0.00,CLR,SCT,0.00,WeatherDisplay:10.37,2013-01-21 12:11:00,
2013-01-21 07:13:00,22.9,20.1,30.06,West,267,0.0,0.0,89,0.00,CLR,SCT,0.00,WeatherDisplay:10.37,2013-01-21 12:13:00,
2013-01-21 07:17:00,22.9,20.1,30.06,West,267,0.0,0.0,89,0.00,CLR,SCT,0.00,WeatherDisplay:10.37,2013-01-21 12:17:00,
2013-01-21 07:18:00,22.9,20.1,30.06,West,267,0.0,0.0,89,0.00,CLR,SCT,0.00,WeatherDisplay:10.37,2013-01-21 12:18:00,
2013-01-21 07:23:00,22.9,20.1,30.06,West,267,0.0,0.0,89,0.00,CLR,SCT,0.00,WeatherDisplay:10.37,2013-01-21 12:23:00,
2013-01-21 07:25:00,22.9,20.1,30.06,West,267,0.0,0.0,89,0.00,CLR,SCT,0.00,WeatherDisplay:10.37,2013-01-21 12:25:00,
2013-01-21 07:28:00,22.7,19.9,30.06,West,267,0.0,0.0,89,0.00,CLR,SCT,0.00,WeatherDisplay:10.37,2013-01-21 12:28:00,
2013-01-21 07:29:00,22.7,19.9,30.06,West,267,0.0,0.0,89,0.00,CLR,SCT,0.00,WeatherDisplay:10.37,2013-01-21 12:29:00,
2013-01-21 07:30:00,22.7,19.9,30.06,West,267,0.0,0.0,89,0.00,CLR,SCT,0.00,WeatherDisplay:10.37,2013-01-21 12:30:00,
2013-01-21 07:33:00,22.7,19.9,30.07,West,267,0.0,0.0,89,0.00,CLR,SCT,0.00,WeatherDisplay:10.37,2013-01-21 12:33:00,
2013-01-21 07:34:00,22.7,19.9,30.07,West,267,0.0,0.0,89,0.00,CLR,SCT,0.00,WeatherDisplay:10.37,2013-01-21 12:34:00,
2013-01-21 07:38:00,22.5,19.7,30.07,West,267,0.0,0.0,89,0.00,CLR,SCT,0.00,WeatherDisplay:10.37,2013-01-21 12:38:00,
2013-01-21 07:39:00,22.5,19.7,30.07,West,267,0.0,0.0,89,0.00,CLR,SCT,0.00,WeatherDisplay:10.37,2013-01-21 12:39:00,
2013-01-21 07:44:00,22.5,19.7,30.07,West,267,0.0,0.0,89,0.00,CLR,SCT,0.00,WeatherDisplay:10.37,2013-01-21 12:44:00,
2013-01-21 07:45:00,22.5,19.7,30.07,West,267,0.0,0.0,89,0.00,CLR,SCT,0.00,WeatherDisplay:10.37,2013-01-21 12:45:00,
2013-01-21 07:50:00,22.4,19.6,30.08,West,267,0.0,0.0,89,0.00,CLR,SCT,0.00,WeatherDisplay:10.37,2013-01-21 12:50:00,
2013-01-21 07:55:00,22.4,19.6,30.07,West,267,0.0,0.0,89,0.00,CLR,SCT,0.00,WeatherDisplay:10.37,2013-01-21 12:55:00,
2013-01-21 07:56:00,22.4,19.6,30.07,West,267,0.0,0.0,89,0.00,CLR,SCT,0.00,WeatherDisplay:10.37,2013-01-21 12:56:00,
2013-01-21 08:00:00,22.4,19.6,30.08,West,267,0.0,0.0,89,0.00,CLR,SCT,0.00,WeatherDisplay:10.37,2013-01-21 13:00:00,
2013-01-21 08:04:00,22.4,19.6,30.08,West,267,0.0,0.0,89,0.00,CLR,SCT,0.00,WeatherDisplay:10.37,2013-01-21 13:04:00,
2013-01-21 08:06:00,22.4,19.9,30.08,West,267,0.0,0.0,90,0.00,CLR,SCT,0.00,WeatherDisplay:10.37,2013-01-21 13:06:00,
2013-01-21 08:10:00,22.5,20.0,30.08,West,267,0.0,0.0,90,0.00,CLR,SCT,0.00,WeatherDisplay:10.37,2013-01-21 13:10:00,
2013-01-21 08:12:00,22.7,20.2,30.08,West,267,0.0,0.0,90,0.00,CLR,SCT,0.00,WeatherDisplay:10.37,2013-01-21 13:12:00,
2013-01-21 08:17:00,23.0,20.5,30.08,West,267,0.0,0.0,90,0.00,CLR,SCT,0.00,WeatherDisplay:10.37,2013-01-21 13:17:00,
2013-01-21 08:19:00,23.0,20.5,30.08,West,267,0.0,0.0,90,0.00,CLR,SCT,0.00,WeatherDisplay:10.37,2013-01-21 13:19:00,
2013-01-21 08:23:00,23.3,20.8,30.08,West,267,0.0,0.0,90,0.00,CLR,SCT,0.00,WeatherDisplay:10.37,2013-01-21 13:23:00,
2013-01-21 08:25:00,23.3,20.8,30.08,West,267,0.0,0.0,90,0.00,CLR,SCT,0.00,WeatherDisplay:10.37,2013-01-21 13:25:00,
2013-01-21 08:28:00,23.5,21.0,30.08,West,267,0.0,0.0,90,0.00,CLR,SCT,0.00,WeatherDisplay:10.37,2013-01-21 13:28:00,
2013-01-21 08:30:00,23.6,21.1,30.08,West,267,0.0,0.0,90,0.00,CLR,SCT,0.00,WeatherDisplay:10.37,2013-01-21 13:30:00,
2013-01-21 08:33:00,23.9,21.4,30.08,West,267,0.0,0.0,90,0.00,CLR,SCT,0.00,WeatherDisplay:10.37,2013-01-21 13:33:00,
2013-01-21 08:38:00,24.4,21.9,30.08,West,267,0.0,0.0,90,0.00,CLR,SCT,0.00,WeatherDisplay:10.37,2013-01-21 13:38:00,
2013-01-21 08:43:00,24.8,22.5,30.08,West,267,0.0,0.0,91,0.00,CLR,SCT,0.00,WeatherDisplay:10.37,2013-01-21 13:43:00,
2013-01-21 08:46:00,25.1,22.8,30.08,West,267,0.0,0.0,91,0.00,CLR,SCT,0.00,WeatherDisplay:10.37,2013-01-21 13:46:00,
2013-01-21 08:48:00,25.4,23.1,30.08,West,267,0.0,0.0,91,0.00,CLR,SCT,0.00,WeatherDisplay:10.37,2013-01-21 13:48:00,
2013-01-21 08:54:00,26.1,23.8,30.08,West,267,0.0,0.0,91,0.00,CLR,SCT,0.00,WeatherDisplay:10.37,2013-01-21 13:54:00,
2013-01-21 08:58:00,26.6,24.3,30.08,West,267,0.0,0.0,91,0.00,CLR,SCT,0.00,WeatherDisplay:10.37,2013-01-21 13:58:00,
2013-01-21 09:00:00,26.9,24.6,30.08,West,267,0.0,0.0,91,0.00,CLR,SCT,0.00,WeatherDisplay:10.37,2013-01-21 14:00:00,
2013-01-21 09:03:00,27.2,24.9,30.09,West,267,0.0,0.0,91,0.00,CLR,SCT,0.00,WeatherDisplay:10.37,2013-01-21 14:03:00,
2013-01-21 09:05:00,27.3,25.0,30.09,West,267,0.0,0.0,91,0.00,CLR,SCT,0.00,WeatherDisplay:10.37,2013-01-21 14:05:00,
2013-01-21 09:09:00,27.8,25.5,30.09,West,267,0.0,0.0,91,0.00,CLR,SCT,0.00,WeatherDisplay:10.37,2013-01-21 14:09:00,
2013-01-21 09:11:00,28.1,25.8,30.09,West,267,0.0,0.0,91,0.00,CLR,SCT,0.00,WeatherDisplay:10.37,2013-01-21 14:11:00,
2013-01-21 09:14:00,28.4,26.1,30.09,West,267,0.0,0.0,91,0.00,CLR,SCT,0.00,WeatherDisplay:10.37,2013-01-21 14:14:00,
2013-01-21 09:18:00,28.8,26.5,30.09,West,267,0.0,0.0,91,0.00,CLR,SCT,0.00,WeatherDisplay:10.37,2013-01-21 14:18:00,
2013-01-21 09:20:00,29.0,26.7,30.09,West,267,0.0,0.0,91,0.00,CLR,SCT,0.00,WeatherDisplay:10.37,2013-01-21 14:20:00,
2013-01-21 09:23:00,29.1,26.8,30.09,West,267,0.0,0.0,91,0.00,CLR,SCT,0.00,WeatherDisplay:10.37,2013-01-21 14:23:00,
2013-01-21 09:24:00,29.3,27.0,30.09,West,267,0.0,0.0,91,0.00,CLR,SCT,0.00,WeatherDisplay:10.37,2013-01-21 14:24:00,
2013-01-21 09:25:00,29.3,27.0,30.09,West,267,0.0,0.0,91,0.00,CLR,SCT,0.00,WeatherDisplay:10.37,2013-01-21 14:25:00,
2013-01-21 09:28:00,29.4,27.1,30.09,West,267,0.0,0.0,91,0.00,CLR,SCT,0.00,WeatherDisplay:10.37,2013-01-21 14:28:00,
2013-01-21 09:29:00,29.5,27.2,30.09,West,267,0.0,0.0,91,0.00,CLR,SCT,0.00,WeatherDisplay:10.37,2013-01-21 14:29:00,
2013-01-21 09:34:00,30.0,27.7,30.09,West,267,0.0,0.0,91,0.00,CLR,SCT,0.00,WeatherDisplay:10.37,2013-01-21 14:34:00,
2013-01-21 09:37:00,30.3,28.0,30.09,West,267,2.3,2.3,91,0.00,CLR,SCT,0.00,WeatherDisplay:10.37,2013-01-21 14:37:00,
2013-01-21 09:40:00,30.7,28.4,30.09,West,267,0.0,0.0,91,0.00,CLR,SCT,0.00,WeatherDisplay:10.37,2013-01-21 14:40:00,
2013-01-21 09:43:00,31.3,29.0,30.10,West,267,0.0,0.0,91,0.00,CLR,SCT,0.00,WeatherDisplay:10.37,2013-01-21 14:43:00,
2013-01-21 09:44:00,31.5,29.2,30.10,West,267,0.0,0.0,91,0.00,CLR,SCT,0.00,WeatherDisplay:10.37,2013-01-21 14:44:00,
2013-01-21 09:47:00,32.1,29.8,30.10,West,267,3.5,3.5,91,0.00,CLR,SCT,0.00,WeatherDisplay:10.37,2013-01-21 14:47:00,
2013-01-21 09:51:00,32.5,30.2,30.10,West,267,3.5,3.5,91,0.00,CLR,SCT,0.00,WeatherDisplay:10.37,2013-01-21 14:51:00,
2013-01-21 09:52:00,32.7,30.4,30.10,West,267,3.5,3.5,91,0.00,CLR,SCT,0.00,WeatherDisplay:10.37,2013-01-21 14:52:00,
2013-01-21 09:56:00,33.1,30.8,30.10,West,266,3.5,3.5,91,0.00,CLR,SCT,0.00,WeatherDisplay:10.37,2013-01-21 14:56:00,
2013-01-21 09:59:00,33.5,31.2,30.10,West,266,3.5,3.5,91,0.00,CLR,SCT,0.00,WeatherDisplay:10.37,2013-01-21 14:59:00,
2013-01-21 10:00:00,33.7,31.4,30.10,West,266,3.5,3.5,91,0.00,CLR,SCT,0.00,WeatherDisplay:10.37,2013-01-21 15:00:00,
2013-01-21 10:03:00,34.0,31.6,30.10,West,265,3.5,3.5,91,0.00,CLR,SCT,0.00,WeatherDisplay:10.37,2013-01-21 15:03:00,
2013-01-21 10:06:00,34.4,32.0,30.10,SW,233,4.6,4.6,91,0.00,CLR,SCT,0.00,WeatherDisplay:10.37,2013-01-21 15:06:00,
2013-01-21 10:08:00,34.6,32.0,30.10,WSW,249,6.9,6.9,90,0.00,CLR,SCT,0.00,WeatherDisplay:10.37,2013-01-21 15:08:00,
2013-01-21 10:09:00,34.7,32.1,30.10,WSW,250,3.5,3.5,90,0.00,CLR,SCT,0.00,WeatherDisplay:10.37,2013-01-21 15:09:00,
2013-01-21 10:10:00,34.7,32.1,30.10,WSW,250,3.5,3.5,90,0.00,CLR,SCT,0.00,WeatherDisplay:10.37,2013-01-21 15:10:00,
2013-01-21 10:11:00,34.9,32.3,30.10,WSW,254,5.0,5.0,90,0.00,CLR,SCT,0.00,WeatherDisplay:10.37,2013-01-21 15:11:00,
2013-01-21 10:14:00,35.2,32.6,30.10,West,265,9.2,9.2,90,0.00,CLR,SCT,0.00,WeatherDisplay:10.37,2013-01-21 15:14:00,
2013-01-21 10:16:00,35.3,32.4,30.10,WSW,253,7.0,7.0,89,0.00,CLR,SCT,0.00,WeatherDisplay:10.37,2013-01-21 15:16:00,
2013-01-21 10:20:00,35.8,32.6,30.10,WSW,246,6.9,6.9,88,0.00,CLR,SCT,0.00,WeatherDisplay:10.37,2013-01-21 15:20:00,
2013-01-21 10:21:00,35.9,32.7,30.10,West,259,9.2,9.2,88,0.00,CLR,SCT,0.00,WeatherDisplay:10.37,2013-01-21 15:21:00,
2013-01-21 10:25:00,36.3,32.8,30.10,West,264,6.0,6.0,87,0.00,CLR,SCT,0.00,WeatherDisplay:10.37,2013-01-21 15:25:00,
2013-01-21 10:26:00,36.5,33.0,30.10,West,263,10.4,10.4,87,0.00,CLR,SCT,0.00,WeatherDisplay:10.37,2013-01-21 15:26:00,
2013-01-21 10:27:00,36.5,33.0,30.10,WSW,254,6.9,6.9,87,0.00,CLR,SCT,0.00,WeatherDisplay:10.37,2013-01-21 15:27:00,
2013-01-21 10:28:00,36.6,32.8,30.10,WSW,254,6.0,6.0,86,0.00,CLR,SCT,0.00,WeatherDisplay:10.37,2013-01-21 15:28:00,
2013-01-21 10:32:00,36.9,32.8,30.10,West,271,6.9,6.9,85,0.00,CLR,SCT,0.00,WeatherDisplay:10.37,2013-01-21 15:32:00,
2013-01-21 10:36:00,37.0,32.6,30.09,WSW,257,5.8,5.8,84,0.00,CLR,SCT,0.00,WeatherDisplay:10.37,2013-01-21 15:36:00,
2013-01-21 10:37:00,37.0,32.9,30.09,WSW,252,4.6,4.6,85,0.00,CLR,SCT,0.00,WeatherDisplay:10.37,2013-01-21 15:37:00,
2013-01-21 10:38:00,37.0,32.9,30.09,SW,236,5.8,5.8,85,0.00,CLR,SCT,0.00,WeatherDisplay:10.37,2013-01-21 15:38:00,
2013-01-21 10:39:00,37.2,33.1,30.09,WSW,249,5.8,5.8,85,0.00,CLR,SCT,0.00,WeatherDisplay:10.37,2013-01-21 15:39:00,
2013-01-21 10:42:00,37.3,32.9,30.09,WSW,251,5.8,5.8,84,0.00,CLR,SCT,0.00,WeatherDisplay:10.37,2013-01-21 15:42:00,
2013-01-21 10:45:00,37.3,32.9,30.09,WSW,245,5.8,5.8,84,0.00,CLR,SCT,0.00,WeatherDisplay:10.37,2013-01-21 15:45:00,
2013-01-21 10:47:00,37.5,33.1,30.09,West,269,5.8,5.8,84,0.00,CLR,SCT,0.00,WeatherDisplay:10.37,2013-01-21 15:47:00,
2013-01-21 10:48:00,37.6,32.9,30.09,SW,230,11.5,11.5,83,0.00,CLR,SCT,0.00,WeatherDisplay:10.37,2013-01-21 15:48:00,
2013-01-21 10:50:00,37.6,32.9,30.09,WSW,251,5.8,5.8,83,0.00,CLR,SCT,0.00,WeatherDisplay:10.37,2013-01-21 15:50:00,
2013-01-21 10:51:00,37.8,33.1,30.09,WSW,248,5.8,5.8,83,0.00,CLR,SCT,0.00,WeatherDisplay:10.37,2013-01-21 15:51:00,
2013-01-21 10:52:00,37.8,33.1,30.09,WSW,244,6.9,6.9,83,0.00,CLR,SCT,0.00,WeatherDisplay:10.37,2013-01-21 15:52:00,
2013-01-21 10:57:00,38.0,33.3,30.09,WSW,246,5.8,5.8,83,0.00,CLR,SCT,0.00,WeatherDisplay:10.37,2013-01-21 15:57:00,
2013-01-21 10:58:00,38.2,33.5,30.09,WSW,255,5.8,5.8,83,0.00,CLR,SCT,0.00,WeatherDisplay:10.37,2013-01-21 15:58:00,
2013-01-21 10:59:00,38.2,33.5,30.08,WSW,240,11.0,11.0,83,0.00,CLR,SCT,0.00,WeatherDisplay:10.37,2013-01-21 15:59:00,
2013-01-21 11:04:00,38.3,33.0,30.08,West,275,11.5,11.5,81,0.00,CLR,SCT,0.00,WeatherDisplay:10.37,2013-01-21 16:04:00,
2013-01-21 11:05:00,38.3,33.0,30.08,WSW,254,11.5,11.5,81,0.00,CLR,SCT,0.00,WeatherDisplay:10.37,2013-01-21 16:05:00,
2013-01-21 11:06:00,38.3,33.0,30.08,WSW,243,6.9,6.9,81,0.00,CLR,SCT,0.00,WeatherDisplay:10.37,2013-01-21 16:06:00,
2013-01-21 11:08:00,38.3,33.0,30.08,West,267,11.5,11.5,81,0.00,CLR,SCT,0.00,WeatherDisplay:10.37,2013-01-21 16:08:00,
2013-01-21 11:09:00,38.3,32.7,30.08,WSW,257,9.0,9.0,80,0.00,CLR,SCT,0.00,WeatherDisplay:10.37,2013-01-21 16:09:00,
2013-01-21 11:11:00,38.3,33.0,30.08,WSW,242,9.2,9.2,81,0.00,CLR,SCT,0.00,WeatherDisplay:10.37,2013-01-21 16:11:00,
2013-01-21 11:12:00,38.3,32.7,30.08,SW,226,10.4,10.4,80,0.00,CLR,SCT,0.00,WeatherDisplay:10.37,2013-01-21 16:12:00,
2013-01-21 11:13:00,38.3,33.0,30.08,West,262,10.4,10.4,81,0.00,CLR,SCT,0.00,WeatherDisplay:10.37,2013-01-21 16:13:00,
2013-01-21 11:16:00,38.5,32.6,30.08,SSW,204,11.5,11.5,79,0.00,CLR,SCT,0.00,WeatherDisplay:10.37,2013-01-21 16:16:00,
2013-01-21 11:17:00,38.6,33.0,30.08,WSW,256,5.8,5.8,80,0.00,CLR,SCT,0.00,WeatherDisplay:10.37,2013-01-21 16:17:00,
2013-01-21 11:21:00,38.8,32.8,30.08,SW,236,11.5,11.5,79,0.00,CLR,SCT,0.00,WeatherDisplay:10.37,2013-01-21 16:21:00,
2013-01-21 11:22:00,38.8,33.2,30.08,WSW,252,9.2,9.2,80,0.00,CLR,SCT,0.00,WeatherDisplay:10.37,2013-01-21 16:22:00,
2013-01-21 11:23:00,38.8,32.8,30.08,WSW,252,11.5,11.5,79,0.00,CLR,SCT,0.00,WeatherDisplay:10.37,2013-01-21 16:23:00,
2013-01-21 11:26:00,38.9,32.9,30.08,WSW,255,11.5,11.5,79,0.00,CLR,SCT,0.00,WeatherDisplay:10.37,2013-01-21 16:26:00,
2013-01-21 11:27:00,39.1,32.8,30.08,SW,236,16.1,16.1,78,0.00,CLR,SCT,0.00,WeatherDisplay:10.37,2013-01-21 16:27:00,
2013-01-21 11:28:00,39.2,32.9,30.08,WSW,254,12.0,12.0,78,0.00,CLR,SCT,0.00,WeatherDisplay:10.37,2013-01-21 16:28:00,
2013-01-21 11:31:00,39.3,33.3,30.08,WSW,248,10.4,10.4,79,0.00,CLR,SCT,0.00,WeatherDisplay:10.37,2013-01-21 16:31:00,
2013-01-21 11:32:00,39.5,33.5,30.08,WSW,249,9.2,9.2,79,0.00,CLR,SCT,0.00,WeatherDisplay:10.37,2013-01-21 16:32:00,
2013-01-21 11:34:00,39.5,33.2,30.08,WSW,246,12.7,12.7,78,0.00,CLR,SCT,0.00,WeatherDisplay:10.37,2013-01-21 16:34:00,
2013-01-21 11:36:00,39.6,33.3,30.08,SW,236,10.4,10.4,78,0.00,CLR,SCT,0.00,WeatherDisplay:10.37,2013-01-21 16:36:00,
2013-01-21 11:37:00,39.6,33.6,30.08,West,267,11.0,11.0,79,0.00,CLR,SCT,0.00,WeatherDisplay:10.37,2013-01-21 16:37:00,
2013-01-21 11:42:00,39.6,33.3,30.07,WSW,248,11.5,11.5,78,0.00,CLR,SCT,0.00,WeatherDisplay:10.37,2013-01-21 16:42:00,
2013-01-21 11:44:00,39.6,33.3,30.07,WSW,241,8.1,8.1,78,0.00,CLR,SCT,0.00,WeatherDisplay:10.37,2013-01-21 16:44:00,
2013-01-21 11:45:00,39.6,33.6,30.07,WSW,239,5.8,5.8,79,0.00,CLR,SCT,0.00,WeatherDisplay:10.37,2013-01-21 16:45:00,
2013-01-21 11:47:00,39.8,33.5,30.07,SW,235,6.9,6.9,78,0.00,CLR,SCT,0.00,WeatherDisplay:10.37,2013-01-21 16:47:00,
2013-01-21 11:49:00,39.8,33.5,30.07,SW,236,9.2,9.2,78,0.00,CLR,SCT,0.00,WeatherDisplay:10.37,2013-01-21 16:49:00,
2013-01-21 11:51:00,39.9,33.9,30.07,West,259,6.0,6.0,79,0.00,CLR,SCT,0.00,WeatherDisplay:10.37,2013-01-21 16:51:00,
2013-01-21 11:53:00,40.1,33.8,30.07,SW,223,6.9,6.9,78,0.00,CLR,SCT,0.00,WeatherDisplay:10.37,2013-01-21 16:53:00,
2013-01-21 11:54:00,40.1,33.8,30.06,SW,225,10.4,10.4,78,0.00,CLR,SCT,0.00,WeatherDisplay:10.37,2013-01-21 16:54:00,
2013-01-21 11:55:00,40.2,33.9,30.06,SW,219,9.2,9.2,78,0.00,CLR,SCT,0.00,WeatherDisplay:10.37,2013-01-21 16:55:00,
2013-01-21 12:00:00,40.3,34.0,30.06,WSW,250,5.8,5.8,78,0.00,CLR,SCT,0.00,WeatherDisplay:10.37,2013-01-21 17:00:00,
2013-01-21 12:01:00,40.3,34.0,30.06,WSW,257,7.0,7.0,78,0.00,CLR,SCT,0.00,WeatherDisplay:10.37,2013-01-21 17:01:00,
2013-01-21 12:06:00,40.6,34.0,30.06,SW,216,5.8,5.8,77,0.00,CLR,SCT,0.00,WeatherDisplay:10.37,2013-01-21 17:06:00,
2013-01-21 12:08:00,40.8,33.8,30.06,WSW,254,12.7,12.7,76,0.00,CLR,SCT,0.00,WeatherDisplay:10.37,2013-01-21 17:08:00,
2013-01-21 12:12:00,40.9,33.2,30.06,West,268,11.5,11.5,74,0.00,CLR,SCT,0.00,WeatherDisplay:10.37,2013-01-21 17:12:00,
2013-01-21 12:13:00,41.1,32.4,30.06,WSW,247,15.0,15.0,71,0.00,CLR,SCT,0.00,WeatherDisplay:10.37,2013-01-21 17:13:00,
2013-01-21 12:14:00,41.1,32.8,30.05,West,260,16.1,16.1,72,0.00,CLR,SCT,0.00,WeatherDisplay:10.37,2013-01-21 17:14:00,
2013-01-21 12:18:00,41.2,32.5,30.05,West,275,14.0,14.0,71,0.00,CLR,SCT,0.00,WeatherDisplay:10.37,2013-01-21 17:18:00,
2013-01-21 12:19:00,41.3,33.0,30.05,West,271,13.8,13.8,72,0.00,CLR,SCT,0.00,WeatherDisplay:10.37,2013-01-21 17:19:00,
2013-01-21 12:21:00,41.3,33.0,30.05,West,267,11.5,11.5,72,0.00,CLR,SCT,0.00,WeatherDisplay:10.37,2013-01-21 17:21:00,
2013-01-21 12:24:00,41.5,31.7,30.04,WSW,240,15.0,15.0,68,0.00,CLR,SCT,0.00,WeatherDisplay:10.37,2013-01-21 17:24:00,
2013-01-21 12:26:00,41.5,32.1,30.04,WSW,247,11.5,11.5,69,0.00,CLR,SCT,0.00,WeatherDisplay:10.37,2013-01-21 17:26:00,
2013-01-21 12:27:00,41.5,32.1,30.04,WSW,242,11.5,11.5,69,0.00,CLR,SCT,0.00,WeatherDisplay:10.37,2013-01-21 17:27:00,
2013-01-21 12:29:00,41.6,32.5,30.04,WSW,258,13.8,13.8,70,0.00,CLR,SCT,0.00,WeatherDisplay:10.37,2013-01-21 17:29:00,
2013-01-21 12:32:00,41.6,32.2,30.04,SW,219,12.0,12.0,69,0.00,CLR,SCT,0.00,WeatherDisplay:10.37,2013-01-21 17:32:00,
2013-01-21 12:33:00,41.8,32.4,30.03,SW,222,12.7,12.7,69,0.00,CLR,SCT,0.00,WeatherDisplay:10.37,2013-01-21 17:33:00,
2013-01-21 12:35:00,41.9,32.1,30.03,WSW,256,11.5,11.5,68,0.00,CLR,SCT,0.00,WeatherDisplay:10.37,2013-01-21 17:35:00,
2013-01-21 12:36:00,41.9,32.8,30.03,SW,219,11.5,11.5,70,0.00,CLR,SCT,0.00,WeatherDisplay:10.37,2013-01-21 17:36:00,
2013-01-21 12:37:00,41.9,32.5,30.03,WSW,240,11.5,11.5,69,0.00,CLR,SCT,0.00,WeatherDisplay:10.37,2013-01-21 17:37:00,
2013-01-21 12:38:00,41.9,33.2,30.03,WSW,252,11.5,11.5,71,0.00,CLR,SCT,0.00,WeatherDisplay:10.37,2013-01-21 17:38:00,
2013-01-21 12:42:00,42.1,33.7,30.02,WSW,250,10.0,10.0,72,0.00,CLR,SCT,0.00,WeatherDisplay:10.37,2013-01-21 17:42:00,
2013-01-21 12:43:00,42.1,33.4,30.02,West,265,11.5,11.5,71,0.00,CLR,SCT,0.00,WeatherDisplay:10.37,2013-01-21 17:43:00,
2013-01-21 12:44:00,42.2,33.5,30.03,WSW,253,12.7,12.7,71,0.00,CLR,SCT,0.00,WeatherDisplay:10.37,2013-01-21 17:44:00,
2013-01-21 12:49:00,42.5,31.9,30.02,West,269,16.1,16.1,66,0.00,CLR,SCT,0.00,WeatherDisplay:10.37,2013-01-21 17:49:00,
2013-01-21 12:50:00,42.6,31.3,30.02,WSW,239,19.6,19.6,64,0.00,CLR,SCT,0.00,WeatherDisplay:10.37,2013-01-21 17:50:00,
2013-01-21 12:51:00,42.6,31.3,30.02,WSW,254,19.6,19.6,64,0.00,CLR,SCT,0.00,WeatherDisplay:10.37,2013-01-21 17:51:00,
2013-01-21 12:56:00,42.8,30.3,30.02,West,267,17.3,17.3,61,0.00,CLR,SCT,0.00,WeatherDisplay:10.37,2013-01-21 17:56:00,
2013-01-21 12:59:00,42.8,30.3,30.01,WNW,283,18.4,18.4,61,0.00,CLR,SCT,0.00,WeatherDisplay:10.37,2013-01-21 17:59:00,
2013-01-21 13:01:00,42.8,31.1,30.01,West,263,17.3,17.3,63,0.00,CLR,SCT,0.00,WeatherDisplay:10.37,2013-01-21 18:01:00,
2013-01-21 13:06:00,42.9,31.6,30.01,WNW,292,12.7,12.7,64,0.00,CLR,SCT,0.00,WeatherDisplay:10.37,2013-01-21 18:06:00,
2013-01-21 13:11:00,43.2,31.8,30.01,WNW,289,18.4,18.4,64,0.00,CLR,SCT,0.00,WeatherDisplay:10.37,2013-01-21 18:11:00,
2013-01-21 13:12:00,43.2,31.1,30.01,West,275,18.4,18.4,62,0.00,CLR,SCT,0.00,WeatherDisplay:10.37,2013-01-21 18:12:00,
2013-01-21 13:17:00,43.3,31.5,30.01,West,268,11.5,11.5,63,0.00,CLR,SCT,0.00,WeatherDisplay:10.37,2013-01-21 18:17:00,
2013-01-21 13:18:00,43.3,31.5,30.01,West,271,12.7,12.7,63,0.00,CLR,SCT,0.00,WeatherDisplay:10.37,2013-01-21 18:18:00,
2013-01-21 13:20:00,43.5,31.7,30.00,WSW,243,12.7,12.7,63,0.00,CLR,SCT,0.00,WeatherDisplay:10.37,2013-01-21 18:20:00,
2013-01-21 13:24:00,43.8,31.6,30.00,WSW,254,14.0,14.0,62,0.00,CLR,SCT,0.00,WeatherDisplay:10.37,2013-01-21 18:24:00,
2013-01-21 13:26:00,43.8,31.6,30.00,WNW,296,17.3,17.3,62,0.00,CLR,SCT,0.00,WeatherDisplay:10.37,2013-01-21 18:26:00,
2013-01-21 13:29:00,43.6,28.9,30.00,West,261,16.1,16.1,56,0.00,CLR,SCT,0.00,WeatherDisplay:10.37,2013-01-21 18:29:00,
2013-01-21 13:35:00,43.5,30.5,30.00,WSW,254,19.6,19.6,60,0.00,CLR,SCT,0.00,WeatherDisplay:10.37,2013-01-21 18:35:00,
2013-01-21 13:36:00,43.5,30.5,30.00,West,271,17.3,17.3,60,0.00,CLR,SCT,0.00,WeatherDisplay:10.37,2013-01-21 18:36:00,
2013-01-21 13:37:00,43.5,29.7,30.01,West,276,17.3,17.3,58,0.00,CLR,SCT,0.00,WeatherDisplay:10.37,2013-01-21 18:37:00,
2013-01-21 13:42:00,43.6,30.6,30.01,West,263,17.3,17.3,60,0.00,CLR,SCT,0.00,WeatherDisplay:10.37,2013-01-21 18:42:00,
2013-01-21 13:43:00,43.6,31.0,30.01,West,279,12.7,12.7,61,0.00,CLR,SCT,0.00,WeatherDisplay:10.37,2013-01-21 18:43:00,
2013-01-21 13:44:00,43.8,30.8,30.01,West,268,15.0,15.0,60,0.00,CLR,SCT,0.00,WeatherDisplay:10.37,2013-01-21 18:44:00,
2013-01-21 13:47:00,43.9,31.7,30.00,West,259,10.4,10.4,62,0.00,CLR,SCT,0.00,WeatherDisplay:10.37,2013-01-21 18:47:00,
2013-01-21 13:48:00,44.1,31.9,30.00,WNW,284,11.5,11.5,62,0.00,CLR,SCT,0.00,WeatherDisplay:10.37,2013-01-21 18:48:00,
2013-01-21 13:53:00,44.1,31.1,30.00,West,273,12.7,12.7,60,0.00,CLR,SCT,0.00,WeatherDisplay:10.37,2013-01-21 18:53:00,
2013-01-21 13:54:00,44.1,31.1,30.00,West,274,17.3,17.3,60,0.00,CLR,SCT,0.00,WeatherDisplay:10.37,2013-01-21 18:54:00,
2013-01-21 13:56:00,44.1,31.5,30.00,West,273,15.0,15.0,61,0.00,CLR,SCT,0.00,WeatherDisplay:10.37,2013-01-21 18:56:00,
2013-01-21 14:00:00,44.1,31.9,30.00,West,267,18.4,18.4,62,0.00,CLR,SCT,0.00,WeatherDisplay:10.37,2013-01-21 19:00:00,
2013-01-21 14:01:00,44.1,30.7,30.00,WNW,287,17.3,17.3,59,0.00,CLR,SCT,0.00,WeatherDisplay:10.37,2013-01-21 19:01:00,
2013-01-21 14:02:00,44.1,31.1,30.00,WNW,289,13.8,13.8,60,0.00,CLR,SCT,0.00,WeatherDisplay:10.37,2013-01-21 19:02:00,
2013-01-21 14:03:00,44.1,31.5,30.00,WNW,293,13.8,13.8,61,0.00,CLR,SCT,0.00,WeatherDisplay:10.37,2013-01-21 19:03:00,
2013-01-21 14:06:00,44.1,31.5,30.00,West,260,13.8,13.8,61,0.00,CLR,SCT,0.00,WeatherDisplay:10.37,2013-01-21 19:06:00,
2013-01-21 14:07:00,44.1,31.5,30.00,West,279,16.0,16.0,61,0.00,CLR,SCT,0.00,WeatherDisplay:10.37,2013-01-21 19:07:00,
2013-01-21 14:08:00,44.2,30.8,30.00,WNW,290,19.6,19.6,59,0.00,CLR,SCT,0.00,WeatherDisplay:10.37,2013-01-21 19:08:00,
2013-01-21 14:12:00,44.2,29.9,30.00,WSW,257,13.8,13.8,57,0.00,CLR,SCT,0.00,WeatherDisplay:10.37,2013-01-21 19:12:00,
2013-01-21 14:13:00,44.2,29.5,30.00,WSW,257,13.8,13.8,56,0.00,CLR,SCT,0.00,WeatherDisplay:10.37,2013-01-21 19:13:00,
2013-01-21 14:17:00,44.2,29.5,29.99,West,276,20.7,20.7,56,0.00,CLR,SCT,0.00,WeatherDisplay:10.37,2013-01-21 19:17:00,
2013-01-21 14:18:00,44.2,28.6,30.00,WSW,257,19.6,19.6,54,0.00,CLR,SCT,0.00,WeatherDisplay:10.37,2013-01-21 19:18:00,
2013-01-21 14:19:00,44.2,29.0,30.00,WSW,240,16.1,16.1,55,0.00,CLR,SCT,0.00,WeatherDisplay:10.37,2013-01-21 19:19:00,
2013-01-21 14:23:00,44.2,30.8,30.00,West,273,14.0,14.0,59,0.00,CLR,SCT,0.00,WeatherDisplay:10.37,2013-01-21 19:23:00,
2013-01-21 14:27:00,44.1,29.4,29.99,WSW,248,18.4,18.4,56,0.00,CLR,SCT,0.00,WeatherDisplay:10.37,2013-01-21 19:27:00,
2013-01-21 14:28:00,44.1,29.4,30.00,WSW,254,17.3,17.3,56,0.00,CLR,SCT,0.00,WeatherDisplay:10.37,2013-01-21 19:28:00,
2013-01-21 14:33:00,44.1,29.8,30.00,WSW,254,17.3,17.3,57,0.00,CLR,SCT,0.00,WeatherDisplay:10.37,2013-01-21 19:33:00,
2013-01-21 14:34:00,44.1,28.5,30.00,WSW,248,19.6,19.6,54,0.00,CLR,SCT,0.00,WeatherDisplay:10.37,2013-01-21 19:34:00,
2013-01-21 14:39:00,44.1,30.3,30.00,West,265,19.6,19.6,58,0.00,CLR,SCT,0.00,WeatherDisplay:10.37,2013-01-21 19:39:00,
2013-01-21 14:40:00,44.1,28.5,30.00,WSW,240,19.6,19.6,54,0.00,CLR,SCT,0.00,WeatherDisplay:10.37,2013-01-21 19:40:00,
2013-01-21 14:44:00,44.1,29.8,30.00,WSW,256,17.3,17.3,57,0.00,CLR,SCT,0.00,WeatherDisplay:10.37,2013-01-21 19:44:00,
2013-01-21 14:45:00,43.9,29.2,30.00,SW,234,15.0,15.0,56,0.00,CLR,SCT,0.00,WeatherDisplay:10.37,2013-01-21 19:45:00,
2013-01-21 14:49:00,43.9,29.6,30.00,WSW,248,17.3,17.3,57,0.00,CLR,SCT,0.00,WeatherDisplay:10.37,2013-01-21 19:49:00,
2013-01-21 14:50:00,43.9,29.6,30.00,West,265,18.4,18.4,57,0.00,CLR,SCT,0.00,WeatherDisplay:10.37,2013-01-21 19:50:00,
2013-01-21 14:52:00,44.1,30.3,30.00,West,261,12.7,12.7,58,0.00,CLR,SCT,0.00,WeatherDisplay:10.37,2013-01-21 19:52:00,
2013-01-21 14:55:00,44.2,30.3,30.00,West,272,10.4,10.4,58,0.00,CLR,SCT,0.00,WeatherDisplay:10.37,2013-01-21 19:55:00,
2013-01-21 14:59:00,44.3,30.9,30.00,West,268,16.0,16.0,59,0.00,CLR,SCT,0.00,WeatherDisplay:10.37,2013-01-21 19:59:00,
2013-01-21 15:01:00,44.3,31.3,30.00,NW,314,5.0,5.0,60,0.00,CLR,SCT,0.00,WeatherDisplay:10.37,2013-01-21 20:01:00,
2013-01-21 15:02:00,44.3,31.3,30.00,WNW,296,5.0,5.0,60,0.00,CLR,SCT,0.00,WeatherDisplay:10.37,2013-01-21 20:02:00,
2013-01-21 15:08:00,44.3,30.0,30.01,West,274,15.0,15.0,57,0.00,CLR,SCT,0.00,WeatherDisplay:10.37,2013-01-21 20:08:00,
2013-01-21 15:09:00,44.2,30.3,30.00,West,277,11.5,11.5,58,0.00,CLR,SCT,0.00,WeatherDisplay:10.37,2013-01-21 20:09:00,
2013-01-21 15:14:00,44.1,31.5,30.00,WNW,288,11.5,11.5,61,0.00,CLR,SCT,0.00,WeatherDisplay:10.37,2013-01-21 20:14:00,
2013-01-21 15:15:00,44.1,31.1,30.00,WNW,294,8.1,8.1,60,0.00,CLR,SCT,0.00,WeatherDisplay:10.37,2013-01-21 20:15:00,
2013-01-21 15:17:00,44.1,30.3,30.00,West,263,13.0,13.0,58,0.00,CLR,SCT,0.00,WeatherDisplay:10.37,2013-01-21 20:17:00,
2013-01-21 15:19:00,44.1,30.7,30.00,West,262,11.0,11.0,59,0.00,CLR,SCT,0.00,WeatherDisplay:10.37,2013-01-21 20:19:00,
2013-01-21 15:22:00,43.9,30.1,30.00,West,265,11.5,11.5,58,0.00,CLR,SCT,0.00,WeatherDisplay:10.37,2013-01-21 20:22:00,
2013-01-21 15:24:00,43.9,29.6,30.00,WNW,290,11.5,11.5,57,0.00,CLR,SCT,0.00,WeatherDisplay:10.37,2013-01-21 20:24:00,
2013-01-21 15:27:00,43.9,30.9,30.00,WNW,284,5.8,5.8,60,0.00,CLR,SCT,0.00,WeatherDisplay:10.37,2013-01-21 20:27:00,
2013-01-21 15:28:00,43.9,30.9,30.00,WSW,240,4.6,4.6,60,0.00,CLR,SCT,0.00,WeatherDisplay:10.37,2013-01-21 20:28:00,
2013-01-21 15:29:00,43.9,30.9,30.00,WSW,247,5.8,5.8,60,0.00,CLR,SCT,0.00,WeatherDisplay:10.37,2013-01-21 20:29:00,
2013-01-21 15:33:00,43.9,29.2,30.00,West,262,12.7,12.7,56,0.00,CLR,SCT,0.00,WeatherDisplay:10.37,2013-01-21 20:33:00,
2013-01-21 15:35:00,43.8,29.5,30.00,WSW,244,16.1,16.1,57,0.00,CLR,SCT,0.00,WeatherDisplay:10.37,2013-01-21 20:35:00,
2013-01-21 15:36:00,43.8,29.1,30.00,WSW,256,16.1,16.1,56,0.00,CLR,SCT,0.00,WeatherDisplay:10.37,2013-01-21 20:36:00,
2013-01-21 15:40:00,43.8,29.5,30.00,West,279,13.8,13.8,57,0.00,CLR,SCT,0.00,WeatherDisplay:10.37,2013-01-21 20:40:00,
2013-01-21 15:42:00,43.6,29.8,30.00,West,273,10.4,10.4,58,0.00,CLR,SCT,0.00,WeatherDisplay:10.37,2013-01-21 20:42:00,
2013-01-21 15:43:00,43.6,29.8,30.00,WNW,284,9.2,9.2,58,0.00,CLR,SCT,0.00,WeatherDisplay:10.37,2013-01-21 20:43:00,
2013-01-21 15:46:00,43.8,30.0,30.00,West,275,12.0,12.0,58,0.00,CLR,SCT,0.00,WeatherDisplay:10.37,2013-01-21 20:46:00,
2013-01-21 15:50:00,43.8,30.0,30.00,West,262,10.4,10.4,58,0.00,CLR,SCT,0.00,WeatherDisplay:10.37,2013-01-21 20:50:00,
2013-01-21 15:51:00,43.6,29.8,30.00,West,261,10.4,10.4,58,0.00,CLR,SCT,0.00,WeatherDisplay:10.37,2013-01-21 20:51:00,
2013-01-21 15:53:00,43.6,29.4,30.00,West,272,12.7,12.7,57,0.00,CLR,SCT,0.00,WeatherDisplay:10.37,2013-01-21 20:53:00,
2013-01-21 15:56:00,43.5,29.3,30.00,West,277,15.0,15.0,57,0.00,CLR,SCT,0.00,WeatherDisplay:10.37,2013-01-21 20:56:00,
2013-01-21 15:58:00,43.5,29.3,30.00,WNW,290,10.4,10.4,57,0.00,CLR,SCT,0.00,WeatherDisplay:10.37,2013-01-21 20:58:00,
2013-01-21 16:01:00,43.5,28.4,30.00,West,270,19.6,19.6,55,0.00,CLR,SCT,0.00,WeatherDisplay:10.37,2013-01-21 21:01:00,
2013-01-21 16:03:00,43.3,27.3,30.00,WSW,246,18.4,18.4,53,0.00,CLR,SCT,0.00,WeatherDisplay:10.37,2013-01-21 21:03:00,
2013-01-21 16:07:00,43.3,28.2,30.00,West,268,16.1,16.1,55,0.00,CLR,SCT,0.00,WeatherDisplay:10.37,2013-01-21 21:07:00,
2013-01-21 16:08:00,43.3,28.6,30.00,West,274,12.7,12.7,56,0.00,CLR,SCT,0.00,WeatherDisplay:10.37,2013-01-21 21:08:00,
2013-01-21 16:09:00,43.3,27.8,30.01,West,265,15.0,15.0,54,0.00,CLR,SCT,0.00,WeatherDisplay:10.37,2013-01-21 21:09:00,
2013-01-21 16:12:00,43.2,27.7,30.01,West,271,16.1,16.1,54,0.00,CLR,SCT,0.00,WeatherDisplay:10.37,2013-01-21 21:12:00,
2013-01-21 16:14:00,43.2,28.1,30.01,West,265,17.3,17.3,55,0.00,CLR,SCT,0.00,WeatherDisplay:10.37,2013-01-21 21:14:00,
2013-01-21 16:15:00,43.2,27.7,30.01,West,263,16.1,16.1,54,0.00,CLR,SCT,0.00,WeatherDisplay:10.37,2013-01-21 21:15:00,
2013-01-21 16:19:00,43.2,28.5,30.01,West,259,11.5,11.5,56,0.00,CLR,SCT,0.00,WeatherDisplay:10.37,2013-01-21 21:19:00,
2013-01-21 16:21:00,43.2,28.1,30.01,West,269,15.0,15.0,55,0.00,CLR,SCT,0.00,WeatherDisplay:10.37,2013-01-21 21:21:00,
2013-01-21 16:26:00,43.2,28.5,30.01,West,271,13.8,13.8,56,0.00,CLR,SCT,0.00,WeatherDisplay:10.37,2013-01-21 21:26:00,
2013-01-21 16:27:00,43.2,27.2,30.01,West,269,15.0,15.0,53,0.00,CLR,SCT,0.00,WeatherDisplay:10.37,2013-01-21 21:27:00,
2013-01-21 16:32:00,43.1,25.7,30.01,West,261,18.4,18.4,50,0.00,CLR,SCT,0.00,WeatherDisplay:10.37,2013-01-21 21:32:00,
2013-01-21 16:35:00,42.9,25.0,30.01,West,263,18.4,18.4,49,0.00,CLR,SCT,0.00,WeatherDisplay:10.37,2013-01-21 21:35:00,
2013-01-21 16:37:00,42.8,25.4,30.01,West,262,19.6,19.6,50,0.00,CLR,SCT,0.00,WeatherDisplay:10.37,2013-01-21 21:37:00,
2013-01-21 16:40:00,42.8,25.4,30.01,West,276,20.7,20.7,50,0.00,CLR,SCT,0.00,WeatherDisplay:10.37,2013-01-21 21:40:00,
2013-01-21 16:42:00,42.8,25.4,30.01,West,277,20.7,20.7,50,0.00,CLR,SCT,0.00,WeatherDisplay:10.37,2013-01-21 21:42:00,
2013-01-21 16:46:00,42.6,23.2,30.01,West,264,26.5,26.5,46,0.00,CLR,SCT,0.00,WeatherDisplay:10.37,2013-01-21 21:46:00,
2013-01-21 16:47:00,42.5,24.2,30.01,West,281,19.6,19.6,48,0.00,CLR,SCT,0.00,WeatherDisplay:10.37,2013-01-21 21:47:00,
2013-01-21 16:51:00,42.5,22.6,30.01,West,269,23.0,23.0,45,0.00,CLR,SCT,0.00,WeatherDisplay:10.37,2013-01-21 21:51:00,
2013-01-21 16:52:00,42.3,23.5,30.01,West,274,19.6,19.6,47,0.00,CLR,SCT,0.00,WeatherDisplay:10.37,2013-01-21 21:52:00,
2013-01-21 16:57:00,42.3,24.0,30.01,West,267,13.8,13.8,48,0.00,CLR,SCT,0.00,WeatherDisplay:10.37,2013-01-21 21:57:00,
2013-01-21 16:58:00,42.3,24.5,30.01,WNW,283,18.4,18.4,49,0.00,CLR,SCT,0.00,WeatherDisplay:10.37,2013-01-21 21:58:00,
2013-01-21 17:02:00,42.2,23.9,30.01,West,265,13.8,13.8,48,0.00,CLR,SCT,0.00,WeatherDisplay:10.37,2013-01-21 22:02:00,
2013-01-21 17:04:00,42.1,24.3,30.01,West,263,12.7,12.7,49,0.00,CLR,SCT,0.00,WeatherDisplay:10.37,2013-01-21 22:04:00,
2013-01-21 17:07:00,41.9,25.1,30.01,West,268,12.7,12.7,51,0.00,CLR,SCT,0.00,WeatherDisplay:10.37,2013-01-21 22:07:00,
2013-01-21 17:11:00,41.9,24.1,30.01,West,267,17.3,17.3,49,0.00,CLR,SCT,0.00,WeatherDisplay:10.37,2013-01-21 22:11:00,
2013-01-21 17:14:00,41.8,24.0,30.02,SW,225,13.8,13.8,49,0.00,CLR,SCT,0.00,WeatherDisplay:10.37,2013-01-21 22:14:00,
2013-01-21 17:19:00,41.6,25.7,30.02,WSW,238,6.9,6.9,53,0.00,CLR,SCT,0.00,WeatherDisplay:10.37,2013-01-21 22:19:00,
2013-01-21 17:21:00,41.6,26.2,30.01,WSW,248,13.0,13.0,54,0.00,CLR,SCT,0.00,WeatherDisplay:10.37,2013-01-21 22:21:00,
2013-01-21 17:25:00,41.3,25.0,30.01,WSW,248,16.1,16.1,52,0.00,CLR,SCT,0.00,WeatherDisplay:10.37,2013-01-21 22:25:00,
2013-01-21 17:26:00,41.2,24.9,30.01,WSW,246,13.8,13.8,52,0.00,CLR,SCT,0.00,WeatherDisplay:10.37,2013-01-21 22:26:00,
2013-01-21 17:30:00,41.1,25.3,30.01,West,261,11.5,11.5,53,0.00,CLR,SCT,0.00,WeatherDisplay:10.37,2013-01-21 22:30:00,
2013-01-21 17:31:00,40.9,25.1,30.01,WSW,257,15.0,15.0,53,0.00,CLR,SCT,0.00,WeatherDisplay:10.37,2013-01-21 22:31:00,
2013-01-21 17:34:00,40.8,23.6,30.01,WSW,245,16.1,16.1,50,0.00,CLR,SCT,0.00,WeatherDisplay:10.37,2013-01-21 22:34:00,
2013-01-21 17:35:00,40.6,23.4,30.02,WSW,257,16.1,16.1,50,0.00,CLR,SCT,0.00,WeatherDisplay:10.37,2013-01-21 22:35:00,
2013-01-21 17:39:00,40.5,23.8,30.01,WSW,247,12.7,12.7,51,0.00,CLR,SCT,0.00,WeatherDisplay:10.37,2013-01-21 22:39:00,
2013-01-21 17:41:00,40.5,23.8,30.01,WSW,256,11.5,11.5,51,0.00,CLR,SCT,0.00,WeatherDisplay:10.37,2013-01-21 22:41:00,
2013-01-21 17:42:00,40.3,23.6,30.01,West,262,13.8,13.8,51,0.00,CLR,SCT,0.00,WeatherDisplay:10.37,2013-01-21 22:42:00,
2013-01-21 17:44:00,40.3,24.1,30.01,WSW,252,11.5,11.5,52,0.00,CLR,SCT,0.00,WeatherDisplay:10.37,2013-01-21 22:44:00,
2013-01-21 17:46:00,40.2,24.0,30.02,West,266,13.8,13.8,52,0.00,CLR,SCT,0.00,WeatherDisplay:10.37,2013-01-21 22:46:00,
2013-01-21 17:49:00,40.1,23.9,30.02,WSW,257,12.7,12.7,52,0.00,CLR,SCT,0.00,WeatherDisplay:10.37,2013-01-21 22:49:00,
2013-01-21 17:50:00,39.9,24.1,30.02,WSW,251,13.8,13.8,53,0.00,CLR,SCT,0.00,WeatherDisplay:10.37,2013-01-21 22:50:00,
2013-01-21 17:51:00,39.9,23.7,30.02,West,263,15.0,15.0,52,0.00,CLR,SCT,0.00,WeatherDisplay:10.37,2013-01-21 22:51:00,
2013-01-21 17:55:00,39.8,23.1,30.02,SW,221,12.7,12.7,51,0.00,CLR,SCT,0.00,WeatherDisplay:10.37,2013-01-21 22:55:00,
2013-01-21 17:56:00,39.8,24.0,30.02,WSW,257,11.5,11.5,53,0.00,CLR,SCT,0.00,WeatherDisplay:10.37,2013-01-21 22:56:00,
2013-01-21 17:59:00,39.6,22.9,30.02,WSW,246,12.7,12.7,51,0.00,CLR,SCT,0.00,WeatherDisplay:10.37,2013-01-21 22:59:00,
2013-01-21 18:00:00,39.6,23.9,30.02,WSW,254,13.8,13.8,53,0.00,CLR,SCT,0.00,WeatherDisplay:10.37,2013-01-21 23:00:00,
2013-01-21 18:01:00,39.6,23.9,30.02,WSW,256,13.8,13.8,53,0.00,CLR,SCT,0.00,WeatherDisplay:10.37,2013-01-21 23:01:00,
2013-01-21 18:03:00,39.5,24.2,30.02,WSW,250,11.5,11.5,54,0.00,CLR,SCT,0.00,WeatherDisplay:10.37,2013-01-21 23:03:00,
2013-01-21 18:05:00,39.3,24.5,30.01,WSW,245,6.9,6.9,55,0.00,,SCT,0.00,WeatherDisplay:10.37,2013-01-21 23:05:00,
2013-01-21 18:06:00,39.3,24.9,30.01,West,263,10.4,10.4,56,0.00,,SCT,0.00,WeatherDisplay:10.37,2013-01-21 23:06:00,
2013-01-21 18:08:00,39.1,24.3,30.02,WSW,254,11.5,11.5,55,0.00,,SCT,0.00,WeatherDisplay:10.37,2013-01-21 23:08:00,
2013-01-21 18:11:00,38.9,23.7,30.02,WSW,251,11.5,11.5,54,0.00,,SCT,0.00,WeatherDisplay:10.37,2013-01-21 23:11:00,
2013-01-21 18:13:00,38.9,23.7,30.02,WSW,257,12.7,12.7,54,0.00,,SCT,0.00,WeatherDisplay:10.37,2013-01-21 23:13:00,
2013-01-21 18:16:00,38.8,24.0,30.02,WSW,253,10.4,10.4,55,0.00,,SCT,0.00,WeatherDisplay:10.37,2013-01-21 23:16:00,
2013-01-21 18:17:00,38.8,24.0,30.02,WSW,254,10.4,10.4,55,0.00,,SCT,0.00,WeatherDisplay:10.37,2013-01-21 23:17:00,
2013-01-21 18:18:00,38.8,24.0,30.02,West,266,10.4,10.4,55,0.00,,SCT,0.00,WeatherDisplay:10.37,2013-01-21 23:18:00,
2013-01-21 18:20:00,38.6,23.8,30.02,WSW,252,9.0,9.0,55,0.00,,SCT,0.00,WeatherDisplay:10.37,2013-01-21 23:20:00,
2013-01-21 18:24:00,38.5,24.1,30.02,WSW,254,10.4,10.4,56,0.00,,SCT,0.00,WeatherDisplay:10.37,2013-01-21 23:24:00,
2013-01-21 18:25:00,38.5,24.1,30.02,WSW,250,8.1,8.1,56,0.00,,SCT,0.00,WeatherDisplay:10.37,2013-01-21 23:25:00,
2013-01-21 18:30:00,38.2,24.3,30.02,WSW,246,9.2,9.2,57,0.00,,SCT,0.00,WeatherDisplay:10.37,2013-01-21 23:30:00,
2013-01-21 18:31:00,38.2,24.3,30.02,WSW,258,6.9,6.9,57,0.00,,SCT,0.00,WeatherDisplay:10.37,2013-01-21 23:31:00,
2013-01-21 18:35:00,37.9,24.4,30.03,WSW,255,5.8,5.8,58,0.00,,SCT,0.00,WeatherDisplay:10.37,2013-01-21 23:35:00,
2013-01-21 18:36:00,37.8,24.3,30.03,West,264,6.0,6.0,58,0.00,,SCT,0.00,WeatherDisplay:10.37,2013-01-21 23:36:00,
2013-01-21 18:39:00,37.6,24.1,30.02,WSW,242,6.9,6.9,58,0.00,,SCT,0.00,WeatherDisplay:10.37,2013-01-21 23:39:00,
2013-01-21 18:40:00,37.5,24.1,30.02,WSW,242,5.8,5.8,58,0.00,,SCT,0.00,WeatherDisplay:10.37,2013-01-21 23:40:00,
2013-01-21 18:42:00,37.3,24.3,30.03,WSW,252,6.9,6.9,59,0.00,,SCT,0.00,WeatherDisplay:10.37,2013-01-21 23:42:00,
2013-01-21 18:45:00,37.2,24.6,30.02,WSW,241,5.8,5.8,60,0.00,,SCT,0.00,WeatherDisplay:10.37,2013-01-21 23:45:00,
2013-01-21 18:48:00,37.0,24.4,30.02,WSW,248,4.6,4.6,60,0.00,,SCT,0.00,WeatherDisplay:10.37,2013-01-21 23:48:00,
2013-01-21 18:50:00,36.9,24.3,30.03,SW,235,6.9,6.9,60,0.00,,SCT,0.00,WeatherDisplay:10.37,2013-01-21 23:50:00,
2013-01-21 18:52:00,36.9,24.7,30.03,WSW,239,5.0,5.0,61,0.00,,SCT,0.00,WeatherDisplay:10.37,2013-01-21 23:52:00,
2013-01-21 18:53:00,36.8,24.2,30.03,WSW,249,9.0,9.0,60,0.00,,SCT,0.00,WeatherDisplay:10.37,2013-01-21 23:53:00,
2013-01-21 18:56:00,36.6,24.0,30.03,WSW,240,6.9,6.9,60,0.00,,SCT,0.00,WeatherDisplay:10.37,2013-01-21 23:56:00,
2013-01-21 18:58:00,36.6,24.0,30.03,WSW,250,6.9,6.9,60,0.00,,SCT,0.00,WeatherDisplay:10.37,2013-01-21 23:58:00,
2013-01-21 18:59:00,36.6,23.6,30.03,West,265,9.2,9.2,59,0.00,,SCT,0.00,WeatherDisplay:10.37,2013-01-21 23:59:00,
2013-01-21 19:03:00,36.5,23.5,30.04,West,266,12.0,12.0,59,0.00,,SCT,0.00,WeatherDisplay:10.37,2013-01-22 00:03:00,
2013-01-21 19:05:00,36.5,23.1,30.04,WSW,243,11.5,11.5,58,0.00,CLR,SCT,0.00,WeatherDisplay:10.37,2013-01-22 00:05:00,
2013-01-21 19:06:00,36.5,23.1,30.04,West,269,11.5,11.5,58,0.00,CLR,SCT,0.00,WeatherDisplay:10.37,2013-01-22 00:06:00,
2013-01-21 19:09:00,36.6,23.2,30.04,West,259,13.8,13.8,58,0.00,CLR,SCT,0.00,WeatherDisplay:10.37,2013-01-22 00:09:00,
2013-01-21 19:12:00,36.6,22.4,30.04,West,277,16.1,16.1,56,0.00,CLR,SCT,0.00,WeatherDisplay:10.37,2013-01-22 00:12:00,
2013-01-21 19:13:00,36.8,22.6,30.04,West,267,16.1,16.1,56,0.00,CLR,SCT,0.00,WeatherDisplay:10.37,2013-01-22 00:13:00,
2013-01-21 19:16:00,36.8,23.0,30.04,WSW,252,11.5,11.5,57,0.00,CLR,SCT,0.00,WeatherDisplay:10.37,2013-01-22 00:16:00,
2013-01-21 19:17:00,36.8,23.0,30.04,West,268,13.8,13.8,57,0.00,CLR,SCT,0.00,WeatherDisplay:10.37,2013-01-22 00:17:00,
2013-01-21 19:19:00,36.8,22.6,30.04,West,261,13.8,13.8,56,0.00,CLR,SCT,0.00,WeatherDisplay:10.37,2013-01-22 00:19:00,
2013-01-21 19:20:00,36.8,23.0,30.04,West,270,12.0,12.0,57,0.00,CLR,SCT,0.00,WeatherDisplay:10.37,2013-01-22 00:20:00,
2013-01-21 19:22:00,36.8,21.7,30.04,West,261,19.6,19.6,54,0.00,CLR,SCT,0.00,WeatherDisplay:10.37,2013-01-22 00:22:00,
2013-01-21 19:24:00,36.8,21.7,30.04,West,278,17.3,17.3,54,0.00,CLR,SCT,0.00,WeatherDisplay:10.37,2013-01-22 00:24:00,
2013-01-21 19:25:00,36.9,21.8,30.04,West,262,15.0,15.0,54,0.00,CLR,SCT,0.00,WeatherDisplay:10.37,2013-01-22 00:25:00,
2013-01-21 19:29:00,36.9,20.4,30.04,WSW,252,19.6,19.6,51,0.00,CLR,SCT,0.00,WeatherDisplay:10.37,2013-01-22 00:29:00,
2013-01-21 19:30:00,36.9,21.8,30.04,West,260,13.8,13.8,54,0.00,CLR,SCT,0.00,WeatherDisplay:10.37,2013-01-22 00:30:00,
2013-01-21 19:32:00,36.8,20.3,30.04,West,272,17.3,17.3,51,0.00,CLR,SCT,0.00,WeatherDisplay:10.37,2013-01-22 00:32:00,
2013-01-21 19:33:00,36.8,21.7,30.04,SW,232,17.3,17.3,54,0.00,CLR,SCT,0.00,WeatherDisplay:10.37,2013-01-22 00:33:00,
2013-01-21 19:35:00,36.8,21.3,30.04,West,263,15.0,15.0,53,0.00,CLR,SCT,0.00,WeatherDisplay:10.37,2013-01-22 00:35:00,
2013-01-21 19:37:00,36.6,19.7,30.04,West,269,19.6,19.6,50,0.00,CLR,SCT,0.00,WeatherDisplay:10.37,2013-01-22 00:37:00,
2013-01-21 19:39:00,36.6,21.1,30.05,West,266,13.8,13.8,53,0.00,CLR,SCT,0.00,WeatherDisplay:10.37,2013-01-22 00:39:00,
2013-01-21 19:44:00,36.5,19.6,30.04,West,267,18.4,18.4,50,0.00,CLR,SCT,0.00,WeatherDisplay:10.37,2013-01-22 00:44:00,
2013-01-21 19:45:00,36.3,18.9,30.04,West,260,18.4,18.4,49,0.00,CLR,SCT,0.00,WeatherDisplay:10.37,2013-01-22 00:45:00,
2013-01-21 19:49:00,36.3,19.9,30.04,West,271,17.3,17.3,51,0.00,CLR,SCT,0.00,WeatherDisplay:10.37,2013-01-22 00:49:00,
2013-01-21 19:51:00,36.2,18.4,30.04,West,274,19.6,19.6,48,0.00,CLR,SCT,0.00,WeatherDisplay:10.37,2013-01-22 00:51:00,
2013-01-21 19:53:00,36.2,17.4,30.04,WNW,282,24.2,24.2,46,0.00,CLR,SCT,0.00,WeatherDisplay:10.37,2013-01-22 00:53:00,
2013-01-21 19:55:00,36.2,17.4,30.04,West,271,18.4,18.4,46,0.00,CLR,SCT,0.00,WeatherDisplay:10.37,2013-01-22 00:55:00,
2013-01-21 19:56:00,36.2,17.9,30.04,West,262,17.3,17.3,47,0.00,CLR,SCT,0.00,WeatherDisplay:10.37,2013-01-22 00:56:00,
2013-01-21 19:58:00,36.0,18.7,30.05,West,268,15.0,15.0,49,0.00,CLR,SCT,0.00,WeatherDisplay:10.37,2013-01-22 00:58:00,
2013-01-21 20:00:00,35.9,18.6,30.05,West,273,15.0,15.0,49,0.00,CLR,SCT,0.00,WeatherDisplay:10.37,2013-01-22 01:00:00,
2013-01-21 20:01:00,35.8,17.5,30.05,West,261,18.4,18.4,47,0.00,CLR,SCT,0.00,WeatherDisplay:10.37,2013-01-22 01:01:00,
2013-01-21 20:06:00,35.6,18.3,30.05,WSW,248,11.5,11.5,49,0.00,CLR,SCT,0.00,WeatherDisplay:10.37,2013-01-22 01:06:00,
2013-01-21 20:07:00,35.5,18.7,30.05,WSW,250,12.7,12.7,50,0.00,CLR,SCT,0.00,WeatherDisplay:10.37,2013-01-22 01:07:00,
2013-01-21 20:08:00,35.5,19.1,30.04,WSW,254,14.0,14.0,51,0.00,CLR,SCT,0.00,WeatherDisplay:10.37,2013-01-22 01:08:00,
2013-01-21 20:13:00,35.2,18.9,30.04,West,259,12.7,12.7,51,0.00,CLR,SCT,0.00,WeatherDisplay:10.37,2013-01-22 01:13:00,
2013-01-21 20:14:00,35.0,18.7,30.05,West,259,12.7,12.7,51,0.00,CLR,SCT,0.00,WeatherDisplay:10.37,2013-01-22 01:14:00,
2013-01-21 20:16:00,34.9,18.1,30.05,West,281,15.0,15.0,50,0.00,CLR,SCT,0.00,WeatherDisplay:10.37,2013-01-22 01:16:00,
2013-01-21 20:21:00,34.9,17.7,30.05,West,265,14.0,14.0,49,0.00,CLR,SCT,0.00,WeatherDisplay:10.37,2013-01-22 01:21:00,
2013-01-21 20:25:00,34.9,15.2,30.05,West,264,16.1,16.1,44,0.00,CLR,SCT,0.00,WeatherDisplay:10.37,2013-01-22 01:25:00,
2013-01-21 20:28:00,34.7,16.0,30.05,West,277,15.0,15.0,46,0.00,CLR,SCT,0.00,WeatherDisplay:10.37,2013-01-22 01:28:00,
2013-01-21 20:32:00,34.7,16.5,30.05,West,269,13.8,13.8,47,0.00,CLR,SCT,0.00,WeatherDisplay:10.37,2013-01-22 01:32:00,
2013-01-21 20:33:00,34.6,16.4,30.05,West,280,13.8,13.8,47,0.00,CLR,SCT,0.00,WeatherDisplay:10.37,2013-01-22 01:33:00,
2013-01-21 20:36:00,34.6,15.9,30.05,West,261,13.8,13.8,46,0.00,CLR,SCT,0.00,WeatherDisplay:10.37,2013-01-22 01:36:00,
2013-01-21 20:37:00,34.6,15.9,30.05,West,265,13.8,13.8,46,0.00,CLR,SCT,0.00,WeatherDisplay:10.37,2013-01-22 01:37:00,
2013-01-21 20:41:00,34.3,16.1,30.06,WSW,252,11.5,11.5,47,0.00,CLR,SCT,0.00,WeatherDisplay:10.37,2013-01-22 01:41:00,
2013-01-21 20:44:00,34.3,16.6,30.06,WSW,253,11.5,11.5,48,0.00,CLR,SCT,0.00,WeatherDisplay:10.37,2013-01-22 01:44:00,
2013-01-21 20:46:00,34.1,16.4,30.06,WSW,255,12.7,12.7,48,0.00,CLR,SCT,0.00,WeatherDisplay:10.37,2013-01-22 01:46:00,
2013-01-21 20:47:00,34.1,16.4,30.06,WSW,255,11.5,11.5,48,0.00,CLR,SCT,0.00,WeatherDisplay:10.37,2013-01-22 01:47:00,
2013-01-21 20:50:00,34.0,15.4,30.06,West,260,11.5,11.5,46,0.00,CLR,SCT,0.00,WeatherDisplay:10.37,2013-01-22 01:50:00,
2013-01-21 20:51:00,33.8,15.7,30.06,WSW,243,11.5,11.5,47,0.00,CLR,SCT,0.00,WeatherDisplay:10.37,2013-01-22 01:51:00,
2013-01-21 20:52:00,33.8,16.2,30.06,West,268,11.5,11.5,48,0.00,CLR,SCT,0.00,WeatherDisplay:10.37,2013-01-22 01:52:00,
2013-01-21 20:56:00,33.5,16.8,30.06,West,268,10.4,10.4,50,0.00,CLR,SCT,0.00,WeatherDisplay:10.37,2013-01-22 01:56:00,
2013-01-21 20:59:00,33.4,16.7,30.06,WSW,257,9.2,9.2,50,0.00,CLR,SCT,0.00,WeatherDisplay:10.37,2013-01-22 01:59:00,
2013-01-21 21:02:00,33.2,16.5,30.06,WSW,252,10.4,10.4,50,0.00,CLR,SCT,0.00,WeatherDisplay:10.37,2013-01-22 02:02:00,
2013-01-21 21:07:00,32.9,17.2,30.05,WSW,252,7.0,7.0,52,0.00,CLR,SCT,0.00,WeatherDisplay:10.37,2013-01-22 02:07:00,
2013-01-21 21:08:00,32.8,17.1,30.05,WSW,250,6.9,6.9,52,0.00,CLR,SCT,0.00,WeatherDisplay:10.37,2013-01-22 02:08:00,
2013-01-21 21:12:00,32.7,17.0,30.05,WSW,254,8.1,8.1,52,0.00,CLR,SCT,0.00,WeatherDisplay:10.37,2013-01-22 02:12:00,
2013-01-21 21:14:00,32.5,16.4,30.06,WSW,254,9.2,9.2,51,0.00,CLR,SCT,0.00,WeatherDisplay:10.37,2013-01-22 02:14:00,
2013-01-21 21:19:00,32.4,16.3,30.06,WSW,257,10.4,10.4,51,0.00,CLR,SCT,0.00,WeatherDisplay:10.37,2013-01-22 02:19:00,
2013-01-21 21:20:00,32.4,16.7,30.06,West,266,10.4,10.4,52,0.00,CLR,SCT,0.00,WeatherDisplay:10.37,2013-01-22 02:20:00,
2013-01-21 21:23:00,32.4,16.7,30.06,WSW,254,10.4,10.4,52,0.00,CLR,SCT,0.00,WeatherDisplay:10.37,2013-01-22 02:23:00,
2013-01-21 21:24:00,32.2,16.5,30.06,WSW,252,9.0,9.0,52,0.00,CLR,SCT,0.00,WeatherDisplay:10.37,2013-01-22 02:24:00,
2013-01-21 21:29:00,32.2,16.5,30.06,SW,227,9.2,9.2,52,0.00,CLR,SCT,0.00,WeatherDisplay:10.37,2013-01-22 02:29:00,
2013-01-21 21:30:00,32.2,16.5,30.06,West,259,9.2,9.2,52,0.00,CLR,SCT,0.00,WeatherDisplay:10.37,2013-01-22 02:30:00,
2013-01-21 21:33:00,32.2,16.1,30.06,West,261,11.5,11.5,51,0.00,CLR,SCT,0.00,WeatherDisplay:10.37,2013-01-22 02:33:00,
2013-01-21 21:37:00,32.1,16.4,30.06,West,263,11.5,11.5,52,0.00,CLR,SCT,0.00,WeatherDisplay:10.37,2013-01-22 02:37:00,
2013-01-21 21:40:00,32.1,16.9,30.07,WSW,246,9.2,9.2,53,0.00,CLR,SCT,0.00,WeatherDisplay:10.37,2013-01-22 02:40:00,
2013-01-21 21:42:00,31.9,16.7,30.07,WSW,258,6.9,6.9,53,0.00,CLR,SCT,0.00,WeatherDisplay:10.37,2013-01-22 02:42:00,
2013-01-21 21:43:00,31.9,16.7,30.07,West,259,10.4,10.4,53,0.00,CLR,SCT,0.00,WeatherDisplay:10.37,2013-01-22 02:43:00,
2013-01-21 21:47:00,31.9,16.7,30.07,WSW,252,9.2,9.2,53,0.00,CLR,SCT,0.00,WeatherDisplay:10.37,2013-01-22 02:47:00,
2013-01-21 21:52:00,31.8,16.6,30.07,West,259,9.0,9.0,53,0.00,CLR,SCT,0.00,WeatherDisplay:10.37,2013-01-22 02:52:00,
2013-01-21 21:53:00,31.8,17.0,30.07,WSW,248,10.4,10.4,54,0.00,CLR,SCT,0.00,WeatherDisplay:10.37,2013-01-22 02:53:00,
2013-01-21 21:55:00,31.6,16.4,30.07,WSW,244,11.5,11.5,53,0.00,CLR,SCT,0.00,WeatherDisplay:10.37,2013-01-22 02:55:00,
2013-01-21 21:57:00,31.6,16.0,30.07,West,263,12.7,12.7,52,0.00,CLR,SCT,0.00,WeatherDisplay:10.37,2013-01-22 02:57:00,
2013-01-21 21:59:00,31.5,16.7,30.08,WSW,242,9.0,9.0,54,0.00,CLR,SCT,0.00,WeatherDisplay:10.37,2013-01-22 02:59:00,
2013-01-21 22:01:00,31.5,15.9,30.07,WSW,254,12.7,12.7,52,0.00,CLR,SCT,0.00,WeatherDisplay:10.37,2013-01-22 03:01:00,
2013-01-21 22:06:00,31.3,16.6,30.06,WSW,244,11.0,11.0,54,0.00,CLR,SCT,0.00,WeatherDisplay:10.37,2013-01-22 03:06:00,
2013-01-21 22:07:00,31.3,16.1,30.07,West,273,11.5,11.5,53,0.00,CLR,SCT,0.00,WeatherDisplay:10.37,2013-01-22 03:07:00,
2013-01-21 22:09:00,31.3,16.6,30.07,West,269,11.5,11.5,54,0.00,CLR,SCT,0.00,WeatherDisplay:10.37,2013-01-22 03:09:00,
2013-01-21 22:12:00,31.2,16.5,30.07,West,268,8.1,8.1,54,0.00,CLR,SCT,0.00,WeatherDisplay:10.37,2013-01-22 03:12:00,
2013-01-21 22:14:00,31.2,16.9,30.07,West,264,6.9,6.9,55,0.00,CLR,SCT,0.00,WeatherDisplay:10.37,2013-01-22 03:14:00,
2013-01-21 22:15:00,31.2,16.9,30.07,WSW,254,10.0,10.0,55,0.00,CLR,SCT,0.00,WeatherDisplay:10.37,2013-01-22 03:15:00,
2013-01-21 22:19:00,31.0,15.8,30.07,WSW,250,15.0,15.0,53,0.00,CLR,SCT,0.00,WeatherDisplay:10.37,2013-01-22 03:19:00,
2013-01-21 22:20:00,30.9,15.8,30.08,West,267,16.1,16.1,53,0.00,CLR,SCT,0.00,WeatherDisplay:10.37,2013-01-22 03:20:00,
2013-01-21 22:21:00,30.9,15.8,30.08,West,263,13.8,13.8,53,0.00,CLR,SCT,0.00,WeatherDisplay:10.37,2013-01-22 03:21:00,
2013-01-21 22:24:00,31.0,15.4,30.08,West,262,12.7,12.7,52,0.00,CLR,SCT,0.00,WeatherDisplay:10.37,2013-01-22 03:24:00,
2013-01-21 22:27:00,30.9,14.4,30.08,West,265,16.1,16.1,50,0.00,CLR,SCT,0.00,WeatherDisplay:10.37,2013-01-22 03:27:00,
2013-01-21 22:29:00,30.9,14.9,30.08,West,267,16.1,16.1,51,0.00,CLR,SCT,0.00,WeatherDisplay:10.37,2013-01-22 03:29:00,
2013-01-21 22:31:00,30.7,14.7,30.08,WSW,258,13.8,13.8,51,0.00,CLR,SCT,0.00,WeatherDisplay:10.37,2013-01-22 03:31:00,
2013-01-21 22:32:00,30.7,15.1,30.08,West,277,11.5,11.5,52,0.00,CLR,SCT,0.00,WeatherDisplay:10.37,2013-01-22 03:32:00,
2013-01-21 22:34:00,30.7,15.1,30.08,West,269,12.7,12.7,52,0.00,CLR,SCT,0.00,WeatherDisplay:10.37,2013-01-22 03:34:00,
2013-01-21 22:36:00,30.6,14.6,30.08,West,270,18.4,18.4,51,0.00,CLR,SCT,0.00,WeatherDisplay:10.37,2013-01-22 03:36:00,
2013-01-21 22:37:00,30.6,14.1,30.08,West,262,18.4,18.4,50,0.00,CLR,SCT,0.00,WeatherDisplay:10.37,2013-01-22 03:37:00,
2013-01-21 22:38:00,30.6,14.1,30.08,West,259,15.0,15.0,50,0.00,CLR,SCT,0.00,WeatherDisplay:10.37,2013-01-22 03:38:00,
2013-01-21 22:41:00,30.4,14.9,30.09,West,264,13.8,13.8,52,0.00,CLR,SCT,0.00,WeatherDisplay:10.37,2013-01-22 03:41:00,
2013-01-21 22:42:00,30.3,15.2,30.09,West,271,13.8,13.8,53,0.00,CLR,SCT,0.00,WeatherDisplay:10.37,2013-01-22 03:42:00,
2013-01-21 22:45:00,30.1,14.6,30.09,WSW,252,13.8,13.8,52,0.00,CLR,SCT,0.00,WeatherDisplay:10.37,2013-01-22 03:45:00,
2013-01-21 22:47:00,30.1,15.0,30.09,West,264,12.7,12.7,53,0.00,CLR,SCT,0.00,WeatherDisplay:10.37,2013-01-22 03:47:00,
2013-01-21 22:48:00,30.0,14.9,30.09,West,271,10.4,10.4,53,0.00,CLR,SCT,0.00,WeatherDisplay:10.37,2013-01-22 03:48:00,
2013-01-21 22:49:00,30.0,14.9,30.09,West,271,11.5,11.5,53,0.00,CLR,SCT,0.00,WeatherDisplay:10.37,2013-01-22 03:49:00,
2013-01-21 22:52:00,29.8,14.3,30.09,WSW,258,15.0,15.0,52,0.00,CLR,SCT,0.00,WeatherDisplay:10.37,2013-01-22 03:52:00,
2013-01-21 22:55:00,29.8,14.7,30.09,WSW,247,11.5,11.5,53,0.00,CLR,SCT,0.00,WeatherDisplay:10.37,2013-01-22 03:55:00,
2013-01-21 22:57:00,29.7,14.6,30.09,West,269,13.8,13.8,53,0.00,CLR,SCT,0.00,WeatherDisplay:10.37,2013-01-22 03:57:00,
2013-01-21 22:58:00,29.7,14.6,30.09,West,275,11.5,11.5,53,0.00,CLR,SCT,0.00,WeatherDisplay:10.37,2013-01-22 03:58:00,
2013-01-21 23:02:00,29.5,14.9,30.09,West,262,11.5,11.5,54,0.00,CLR,SCT,0.00,WeatherDisplay:10.37,2013-01-22 04:02:00,
2013-01-21 23:03:00,29.5,14.5,30.09,West,273,12.7,12.7,53,0.00,CLR,SCT,0.00,WeatherDisplay:10.37,2013-01-22 04:03:00,
2013-01-21 23:07:00,29.4,14.4,30.09,WSW,249,16.1,16.1,53,0.00,CLR,SCT,0.00,WeatherDisplay:10.37,2013-01-22 04:07:00,
2013-01-21 23:08:00,29.4,14.4,30.09,WSW,257,16.0,16.0,53,0.00,CLR,SCT,0.00,WeatherDisplay:10.37,2013-01-22 04:08:00,
2013-01-21 23:09:00,29.4,13.9,30.09,West,265,16.1,16.1,52,0.00,CLR,SCT,0.00,WeatherDisplay:10.37,2013-01-22 04:09:00,
2013-01-21 23:13:00,29.3,14.7,30.09,West,268,12.7,12.7,54,0.00,CLR,SCT,0.00,WeatherDisplay:10.37,2013-01-22 04:13:00,
2013-01-21 23:15:00,29.3,14.7,30.09,West,277,12.7,12.7,54,0.00,CLR,SCT,0.00,WeatherDisplay:10.37,2013-01-22 04:15:00,
2013-01-21 23:17:00,29.1,14.5,30.09,West,265,11.5,11.5,54,0.00,CLR,SCT,0.00,WeatherDisplay:10.37,2013-01-22 04:17:00,
2013-01-21 23:18:00,29.1,14.5,30.09,West,259,9.2,9.2,54,0.00,CLR,SCT,0.00,WeatherDisplay:10.37,2013-01-22 04:18:00,
2013-01-21 23:20:00,29.1,14.5,30.09,West,272,11.5,11.5,54,0.00,CLR,SCT,0.00,WeatherDisplay:10.37,2013-01-22 04:20:00,
2013-01-21 23:23:00,29.0,14.8,30.09,WSW,257,11.5,11.5,55,0.00,CLR,SCT,0.00,WeatherDisplay:10.37,2013-01-22 04:23:00,
2013-01-21 23:25:00,29.0,14.4,30.09,WSW,238,12.0,12.0,54,0.00,CLR,SCT,0.00,WeatherDisplay:10.37,2013-01-22 04:25:00,
2013-01-21 23:29:00,29.0,14.4,30.10,WSW,254,12.7,12.7,54,0.00,CLR,SCT,0.00,WeatherDisplay:10.37,2013-01-22 04:29:00,
2013-01-21 23:34:00,28.8,14.2,30.10,West,261,17.0,17.0,54,0.00,CLR,SCT,0.00,WeatherDisplay:10.37,2013-01-22 04:34:00,
2013-01-21 23:35:00,28.8,14.2,30.10,West,279,17.3,17.3,54,0.00,CLR,SCT,0.00,WeatherDisplay:10.37,2013-01-22 04:35:00,
2013-01-21 23:38:00,28.7,14.6,30.10,WSW,257,10.0,10.0,55,0.00,CLR,SCT,0.00,WeatherDisplay:10.37,2013-01-22 04:38:00,
2013-01-21 23:39:00,28.7,14.6,30.10,West,261,11.5,11.5,55,0.00,CLR,SCT,0.00,WeatherDisplay:10.37,2013-01-22 04:39:00,
2013-01-21 23:40:00,28.7,14.6,30.10,WSW,251,13.0,13.0,55,0.00,CLR,SCT,0.00,WeatherDisplay:10.37,2013-01-22 04:40:00,
2013-01-21 23:42:00,28.5,14.4,30.09,West,266,12.7,12.7,55,0.00,CLR,SCT,0.00,WeatherDisplay:10.37,2013-01-22 04:42:00,
2013-01-21 23:47:00,28.4,14.7,30.10,West,272,13.0,13.0,56,0.00,CLR,SCT,0.00,WeatherDisplay:10.37,2013-01-22 04:47:00,
2013-01-21 23:48:00,28.4,14.3,30.10,West,275,15.0,15.0,55,0.00,CLR,SCT,0.00,WeatherDisplay:10.37,2013-01-22 04:48:00,
2013-01-21 23:49:00,28.2,14.5,30.10,West,263,17.3,17.3,56,0.00,CLR,SCT,0.00,WeatherDisplay:10.37,2013-01-22 04:49:00,
2013-01-21 23:52:00,28.2,14.5,30.10,West,265,10.4,10.4,56,0.00,CLR,SCT,0.00,WeatherDisplay:10.37,2013-01-22 04:52:00,
2013-01-21 23:54:00,28.2,14.5,30.10,West,261,11.5,11.5,56,0.00,CLR,SCT,0.00,WeatherDisplay:10.37,2013-01-22 04:54:00,
2013-01-21 23:59:00,28.1,14.0,30.11,West,276,15.0,15.0,55,0.00,CLR,SCT,0.00,WeatherDisplay:10.37,2013-01-22 04:59:00,